﻿<?xml version="1.0" encoding="utf-8"?><gpx creator="Garmin Desktop App" version="1.1" xsi:schemaLocation="http://www.topografix.com/GPX/1/1 http://www.topografix.com/GPX/1/1/gpx.xsd http://www.garmin.com/xmlschemas/WaypointExtension/v1 http://www8.garmin.com/xmlschemas/WaypointExtensionv1.xsd http://www.garmin.com/xmlschemas/TrackPointExtension/v1 http://www.garmin.com/xmlschemas/TrackPointExtensionv1.xsd http://www.garmin.com/xmlschemas/GpxExtensions/v3 http://www8.garmin.com/xmlschemas/GpxExtensionsv3.xsd http://www.garmin.com/xmlschemas/ActivityExtension/v1 http://www8.garmin.com/xmlschemas/ActivityExtensionv1.xsd http://www.garmin.com/xmlschemas/AdventuresExtensions/v1 http://www8.garmin.com/xmlschemas/AdventuresExtensionv1.xsd http://www.garmin.com/xmlschemas/PressureExtension/v1 http://www.garmin.com/xmlschemas/PressureExtensionv1.xsd http://www.garmin.com/xmlschemas/TripExtensions/v1 http://www.garmin.com/xmlschemas/TripExtensionsv1.xsd http://www.garmin.com/xmlschemas/TripMetaDataExtensions/v1 http://www.garmin.com/xmlschemas/TripMetaDataExtensionsv1.xsd http://www.garmin.com/xmlschemas/ViaPointTransportationModeExtensions/v1 http://www.garmin.com/xmlschemas/ViaPointTransportationModeExtensionsv1.xsd http://www.garmin.com/xmlschemas/CreationTimeExtension/v1 http://www.garmin.com/xmlschemas/CreationTimeExtensionsv1.xsd http://www.garmin.com/xmlschemas/AccelerationExtension/v1 http://www.garmin.com/xmlschemas/AccelerationExtensionv1.xsd http://www.garmin.com/xmlschemas/PowerExtension/v1 http://www.garmin.com/xmlschemas/PowerExtensionv1.xsd http://www.garmin.com/xmlschemas/VideoExtension/v1 http://www.garmin.com/xmlschemas/VideoExtensionv1.xsd" xmlns="http://www.topografix.com/GPX/1/1" xmlns:xsi="http://www.w3.org/2001/XMLSchema-instance" xmlns:wptx1="http://www.garmin.com/xmlschemas/WaypointExtension/v1" xmlns:gpxtrx="http://www.garmin.com/xmlschemas/GpxExtensions/v3" xmlns:gpxtpx="http://www.garmin.com/xmlschemas/TrackPointExtension/v1" xmlns:gpxx="http://www.garmin.com/xmlschemas/GpxExtensions/v3" xmlns:trp="http://www.garmin.com/xmlschemas/TripExtensions/v1" xmlns:adv="http://www.garmin.com/xmlschemas/AdventuresExtensions/v1" xmlns:prs="http://www.garmin.com/xmlschemas/PressureExtension/v1" xmlns:tmd="http://www.garmin.com/xmlschemas/TripMetaDataExtensions/v1" xmlns:vptm="http://www.garmin.com/xmlschemas/ViaPointTransportationModeExtensions/v1" xmlns:ctx="http://www.garmin.com/xmlschemas/CreationTimeExtension/v1" xmlns:gpxacc="http://www.garmin.com/xmlschemas/AccelerationExtension/v1" xmlns:gpxpx="http://www.garmin.com/xmlschemas/PowerExtension/v1" xmlns:vidx1="http://www.garmin.com/xmlschemas/VideoExtension/v1">

  <metadata>
    <link href="http://www.garmin.com">
      <text>Garmin International</text>
    </link>
    <time>2021-02-20T12:54:44Z</time>
    <bounds maxlat="46.258042361587286" maxlon="9.663914171978831" minlat="46.239178301766515" minlon="9.626381685957313" />
  </metadata>

  <trk>
    <name>rifugio-mello2013-11-24</name>
    <extensions>
      <gpxx:TrackExtension>
        <gpxx:DisplayColor>Yellow</gpxx:DisplayColor>
      </gpxx:TrackExtension>
    </extensions>
    <trkseg>
      <trkpt lat="46.239708457142115" lon="9.628979656845331">
        <ele>935.01999999999998</ele>
        <time>2013-11-24T09:26:52Z</time>
      </trkpt>
      <trkpt lat="46.239731758832932" lon="9.628954762592912">
        <ele>921.08000000000004</ele>
        <time>2013-11-24T09:26:55Z</time>
      </trkpt>
      <trkpt lat="46.239737123250961" lon="9.628947721794248">
        <ele>921.08000000000004</ele>
        <time>2013-11-24T09:26:56Z</time>
      </trkpt>
      <trkpt lat="46.239775344729424" lon="9.628910087049007">
        <ele>922.51999999999998</ele>
        <time>2013-11-24T09:27:00Z</time>
      </trkpt>
      <trkpt lat="46.239972654730082" lon="9.628731552511454">
        <ele>922.51999999999998</ele>
        <time>2013-11-24T09:27:17Z</time>
      </trkpt>
      <trkpt lat="46.240018336102366" lon="9.628712190315127">
        <ele>923.48000000000002</ele>
        <time>2013-11-24T09:27:21Z</time>
      </trkpt>
      <trkpt lat="46.240047505125403" lon="9.628750244155526">
        <ele>923</ele>
        <time>2013-11-24T09:27:40Z</time>
      </trkpt>
      <trkpt lat="46.240059239789844" lon="9.62871034629643">
        <ele>923.48000000000002</ele>
        <time>2013-11-24T09:27:43Z</time>
      </trkpt>
      <trkpt lat="46.240168707445264" lon="9.628558969125152">
        <ele>924.45000000000005</ele>
        <time>2013-11-24T09:28:00Z</time>
      </trkpt>
      <trkpt lat="46.240352103486657" lon="9.628387978300452">
        <ele>923.96000000000004</ele>
        <time>2013-11-24T09:28:16Z</time>
      </trkpt>
      <trkpt lat="46.240449417382479" lon="9.628257807344198">
        <ele>923.48000000000002</ele>
        <time>2013-11-24T09:28:31Z</time>
      </trkpt>
      <trkpt lat="46.240444723516703" lon="9.62822025641799">
        <ele>923.96000000000004</ele>
        <time>2013-11-24T09:28:50Z</time>
      </trkpt>
      <trkpt lat="46.240588640794158" lon="9.628113219514489">
        <ele>922.51999999999998</ele>
        <time>2013-11-24T09:29:05Z</time>
      </trkpt>
      <trkpt lat="46.240643877536058" lon="9.628106178715825">
        <ele>922.03999999999996</ele>
        <time>2013-11-24T09:29:18Z</time>
      </trkpt>
      <trkpt lat="46.240769186988473" lon="9.628167785704136">
        <ele>923</ele>
        <time>2013-11-24T09:29:36Z</time>
      </trkpt>
      <trkpt lat="46.240878906100988" lon="9.628073489293456">
        <ele>923.48000000000002</ele>
        <time>2013-11-24T09:29:45Z</time>
      </trkpt>
      <trkpt lat="46.24095132574439" lon="9.62808296084404">
        <ele>923.48000000000002</ele>
        <time>2013-11-24T09:29:48Z</time>
      </trkpt>
      <trkpt lat="46.241150395944715" lon="9.62807172909379">
        <ele>923.48000000000002</ele>
        <time>2013-11-24T09:30:05Z</time>
      </trkpt>
      <trkpt lat="46.241300934925675" lon="9.628198128193617">
        <ele>923.48000000000002</ele>
        <time>2013-11-24T09:30:27Z</time>
      </trkpt>
      <trkpt lat="46.241443175822496" lon="9.628409435972571">
        <ele>922.03999999999996</ele>
        <time>2013-11-24T09:30:48Z</time>
      </trkpt>
      <trkpt lat="46.2414516415447" lon="9.628582522273064">
        <ele>923.96000000000004</ele>
        <time>2013-11-24T09:31:08Z</time>
      </trkpt>
      <trkpt lat="46.241566557437181" lon="9.628876056522131">
        <ele>925.40999999999997</ele>
        <time>2013-11-24T09:31:21Z</time>
      </trkpt>
      <trkpt lat="46.241567982360721" lon="9.629007652401924">
        <ele>927.33000000000004</ele>
        <time>2013-11-24T09:31:35Z</time>
      </trkpt>
      <trkpt lat="46.241569072008133" lon="9.629043526947498">
        <ele>927.80999999999995</ele>
        <time>2013-11-24T09:31:38Z</time>
      </trkpt>
      <trkpt lat="46.241554571315646" lon="9.629213931038976">
        <ele>928.28999999999996</ele>
        <time>2013-11-24T09:31:54Z</time>
      </trkpt>
      <trkpt lat="46.24156697653234" lon="9.629273694008589">
        <ele>928.28999999999996</ele>
        <time>2013-11-24T09:32:13Z</time>
      </trkpt>
      <trkpt lat="46.241584494709969" lon="9.629445942118764">
        <ele>929.25</ele>
        <time>2013-11-24T09:32:28Z</time>
      </trkpt>
      <trkpt lat="46.241627829149365" lon="9.62947846390307">
        <ele>929.73000000000002</ele>
        <time>2013-11-24T09:32:51Z</time>
      </trkpt>
      <trkpt lat="46.241611065343022" lon="9.629628583788872">
        <ele>930.21000000000004</ele>
        <time>2013-11-24T09:33:14Z</time>
      </trkpt>
      <trkpt lat="46.241604443639517" lon="9.629752803593874">
        <ele>930.69000000000005</ele>
        <time>2013-11-24T09:33:24Z</time>
      </trkpt>
      <trkpt lat="46.241562366485596" lon="9.629842909052968">
        <ele>931.16999999999996</ele>
        <time>2013-11-24T09:33:33Z</time>
      </trkpt>
      <trkpt lat="46.241547362878919" lon="9.629886578768492">
        <ele>931.16999999999996</ele>
        <time>2013-11-24T09:33:36Z</time>
      </trkpt>
      <trkpt lat="46.241545602679253" lon="9.63006142526865">
        <ele>933.10000000000002</ele>
        <time>2013-11-24T09:33:55Z</time>
      </trkpt>
      <trkpt lat="46.241505285724998" lon="9.630237612873316">
        <ele>934.53999999999996</ele>
        <time>2013-11-24T09:34:13Z</time>
      </trkpt>
      <trkpt lat="46.241524061188102" lon="9.630300225690007">
        <ele>934.05999999999995</ele>
        <time>2013-11-24T09:34:23Z</time>
      </trkpt>
      <trkpt lat="46.2416070420295" lon="9.630228895694017">
        <ele>935.01999999999998</ele>
        <time>2013-11-24T09:34:35Z</time>
      </trkpt>
      <trkpt lat="46.241721706464887" lon="9.630314894020557">
        <ele>936.94000000000005</ele>
        <time>2013-11-24T09:34:52Z</time>
      </trkpt>
      <trkpt lat="46.241801837459207" lon="9.63045478798449">
        <ele>938.38</ele>
        <time>2013-11-24T09:35:06Z</time>
      </trkpt>
      <trkpt lat="46.241863612085581" lon="9.630621084943414">
        <ele>940.78999999999996</ele>
        <time>2013-11-24T09:35:21Z</time>
      </trkpt>
      <trkpt lat="46.241885405033827" lon="9.630697527900338">
        <ele>942.71000000000004</ele>
        <time>2013-11-24T09:35:34Z</time>
      </trkpt>
      <trkpt lat="46.241877861320972" lon="9.630809174850583">
        <ele>943.66999999999996</ele>
        <time>2013-11-24T09:35:46Z</time>
      </trkpt>
      <trkpt lat="46.241907197982073" lon="9.630898023024201">
        <ele>945.59000000000003</ele>
        <time>2013-11-24T09:36:00Z</time>
      </trkpt>
      <trkpt lat="46.241963021457195" lon="9.63099030777812">
        <ele>947.03999999999996</ele>
        <time>2013-11-24T09:36:12Z</time>
      </trkpt>
      <trkpt lat="46.242026975378394" lon="9.631079155951738">
        <ele>948.96000000000004</ele>
        <time>2013-11-24T09:36:26Z</time>
      </trkpt>
      <trkpt lat="46.242139879614115" lon="9.631127854809165">
        <ele>949.91999999999996</ele>
        <time>2013-11-24T09:36:41Z</time>
      </trkpt>
      <trkpt lat="46.242296369746327" lon="9.631160376593471">
        <ele>950.88</ele>
        <time>2013-11-24T09:36:56Z</time>
      </trkpt>
      <trkpt lat="46.242399634793401" lon="9.631239334121347">
        <ele>950.39999999999998</ele>
        <time>2013-11-24T09:37:09Z</time>
      </trkpt>
      <trkpt lat="46.242499211803079" lon="9.631360787898302">
        <ele>951.84000000000003</ele>
        <time>2013-11-24T09:37:25Z</time>
      </trkpt>
      <trkpt lat="46.242630388587713" lon="9.631348550319672">
        <ele>952.32000000000005</ele>
        <time>2013-11-24T09:37:40Z</time>
      </trkpt>
      <trkpt lat="46.242705741897225" lon="9.63136313483119">
        <ele>954.25</ele>
        <time>2013-11-24T09:37:54Z</time>
      </trkpt>
      <trkpt lat="46.242844546213746" lon="9.631369924172759">
        <ele>956.64999999999998</ele>
        <time>2013-11-24T09:38:09Z</time>
      </trkpt>
      <trkpt lat="46.24289064668119" lon="9.631479056552053">
        <ele>958.09000000000003</ele>
        <time>2013-11-24T09:38:25Z</time>
      </trkpt>
      <trkpt lat="46.242935657501221" lon="9.631572598591447">
        <ele>960.00999999999999</ele>
        <time>2013-11-24T09:38:39Z</time>
      </trkpt>
      <trkpt lat="46.243000281974673" lon="9.631689107045531">
        <ele>961.94000000000005</ele>
        <time>2013-11-24T09:38:54Z</time>
      </trkpt>
      <trkpt lat="46.243119304999709" lon="9.631845178082585">
        <ele>961.46000000000004</ele>
        <time>2013-11-24T09:39:10Z</time>
      </trkpt>
      <trkpt lat="46.243241764605045" lon="9.631925895810127">
        <ele>961.94000000000005</ele>
        <time>2013-11-24T09:39:26Z</time>
      </trkpt>
      <trkpt lat="46.243278309702873" lon="9.631982473656535">
        <ele>960.98000000000002</ele>
        <time>2013-11-24T09:39:39Z</time>
      </trkpt>
      <trkpt lat="46.243420718237758" lon="9.632030418142676">
        <ele>961.46000000000004</ele>
        <time>2013-11-24T09:39:54Z</time>
      </trkpt>
      <trkpt lat="46.243582572788" lon="9.632173916324973">
        <ele>961.94000000000005</ele>
        <time>2013-11-24T09:40:11Z</time>
      </trkpt>
      <trkpt lat="46.243674186989665" lon="9.632254214957357">
        <ele>962.41999999999996</ele>
        <time>2013-11-24T09:40:24Z</time>
      </trkpt>
      <trkpt lat="46.243767729029059" lon="9.632339375093579">
        <ele>963.38</ele>
        <time>2013-11-24T09:40:37Z</time>
      </trkpt>
      <trkpt lat="46.243846854194999" lon="9.632472479715943">
        <ele>962.89999999999998</ele>
        <time>2013-11-24T09:40:50Z</time>
      </trkpt>
      <trkpt lat="46.243892787024379" lon="9.63261254131794">
        <ele>963.38</ele>
        <time>2013-11-24T09:41:02Z</time>
      </trkpt>
      <trkpt lat="46.243932684883475" lon="9.632744556292892">
        <ele>963.86000000000001</ele>
        <time>2013-11-24T09:41:16Z</time>
      </trkpt>
      <trkpt lat="46.243964619934559" lon="9.632814880460501">
        <ele>964.34000000000003</ele>
        <time>2013-11-24T09:41:32Z</time>
      </trkpt>
      <trkpt lat="46.244004853069782" lon="9.632853521034122">
        <ele>964.34000000000003</ele>
        <time>2013-11-24T09:41:50Z</time>
      </trkpt>
      <trkpt lat="46.243979120627046" lon="9.632891491055489">
        <ele>964.82000000000005</ele>
        <time>2013-11-24T09:42:05Z</time>
      </trkpt>
      <trkpt lat="46.243991861119866" lon="9.632911020889878">
        <ele>964.82000000000005</ele>
        <time>2013-11-24T09:42:20Z</time>
      </trkpt>
      <trkpt lat="46.24395246617496" lon="9.632981512695551">
        <ele>963.38</ele>
        <time>2013-11-24T09:42:39Z</time>
      </trkpt>
      <trkpt lat="46.243960428982973" lon="9.633057620376349">
        <ele>961.46000000000004</ele>
        <time>2013-11-24T09:42:50Z</time>
      </trkpt>
      <trkpt lat="46.244040979072452" lon="9.633140601217747">
        <ele>963.86000000000001</ele>
        <time>2013-11-24T09:43:04Z</time>
      </trkpt>
      <trkpt lat="46.244096634909511" lon="9.633249817416072">
        <ele>965.29999999999995</ele>
        <time>2013-11-24T09:43:19Z</time>
      </trkpt>
      <trkpt lat="46.244120523333549" lon="9.633331038057804">
        <ele>967.22000000000003</ele>
        <time>2013-11-24T09:43:32Z</time>
      </trkpt>
      <trkpt lat="46.244207359850407" lon="9.633420640602708">
        <ele>969.14999999999998</ele>
        <time>2013-11-24T09:43:48Z</time>
      </trkpt>
      <trkpt lat="46.244262848049402" lon="9.633397255092859">
        <ele>969.63</ele>
        <time>2013-11-24T09:44:03Z</time>
      </trkpt>
      <trkpt lat="46.244278522208333" lon="9.633296001702547">
        <ele>971.54999999999995</ele>
        <time>2013-11-24T09:44:16Z</time>
      </trkpt>
      <trkpt lat="46.244270978495479" lon="9.633169351145625">
        <ele>972.99000000000001</ele>
        <time>2013-11-24T09:44:31Z</time>
      </trkpt>
      <trkpt lat="46.244278270751238" lon="9.63305426761508">
        <ele>974.90999999999997</ele>
        <time>2013-11-24T09:44:44Z</time>
      </trkpt>
      <trkpt lat="46.244273409247398" lon="9.632942201569676">
        <ele>977.32000000000005</ele>
        <time>2013-11-24T09:44:59Z</time>
      </trkpt>
      <trkpt lat="46.244253627955914" lon="9.632814293727279">
        <ele>980.20000000000005</ele>
        <time>2013-11-24T09:45:14Z</time>
      </trkpt>
      <trkpt lat="46.244316408410668" lon="9.632813623175025">
        <ele>981.15999999999997</ele>
        <time>2013-11-24T09:45:28Z</time>
      </trkpt>
      <trkpt lat="46.244315821677446" lon="9.632890652865171">
        <ele>981.15999999999997</ele>
        <time>2013-11-24T09:45:48Z</time>
      </trkpt>
      <trkpt lat="46.244363347068429" lon="9.632907332852483">
        <ele>981.63999999999999</ele>
        <time>2013-11-24T09:46:08Z</time>
      </trkpt>
      <trkpt lat="46.24442595988512" lon="9.632999114692211">
        <ele>982.60000000000002</ele>
        <time>2013-11-24T09:46:23Z</time>
      </trkpt>
      <trkpt lat="46.244472060352564" lon="9.633102044463158">
        <ele>983.57000000000005</ele>
        <time>2013-11-24T09:46:34Z</time>
      </trkpt>
      <trkpt lat="46.244599130004644" lon="9.633234813809395">
        <ele>984.52999999999997</ele>
        <time>2013-11-24T09:46:49Z</time>
      </trkpt>
      <trkpt lat="46.244603991508484" lon="9.633283177390695">
        <ele>985.00999999999999</ele>
        <time>2013-11-24T09:47:00Z</time>
      </trkpt>
      <trkpt lat="46.244578594341874" lon="9.633315028622747">
        <ele>985.00999999999999</ele>
        <time>2013-11-24T09:47:03Z</time>
      </trkpt>
      <trkpt lat="46.244467198848724" lon="9.633278734982014">
        <ele>984.52999999999997</ele>
        <time>2013-11-24T09:47:18Z</time>
      </trkpt>
      <trkpt lat="46.244467115029693" lon="9.633288457989693">
        <ele>984.52999999999997</ele>
        <time>2013-11-24T09:47:37Z</time>
      </trkpt>
      <trkpt lat="46.244516903534532" lon="9.633280830457807">
        <ele>984.04999999999995</ele>
        <time>2013-11-24T09:47:46Z</time>
      </trkpt>
      <trkpt lat="46.244633579626679" lon="9.633308155462146">
        <ele>985.00999999999999</ele>
        <time>2013-11-24T09:47:56Z</time>
      </trkpt>
      <trkpt lat="46.244788477197289" lon="9.633518373593688">
        <ele>985.97000000000003</ele>
        <time>2013-11-24T09:48:13Z</time>
      </trkpt>
      <trkpt lat="46.244826950132847" lon="9.633717611432076">
        <ele>986.45000000000005</ele>
        <time>2013-11-24T09:48:27Z</time>
      </trkpt>
      <trkpt lat="46.244871206581593" lon="9.633951634168625">
        <ele>987.40999999999997</ele>
        <time>2013-11-24T09:48:41Z</time>
      </trkpt>
      <trkpt lat="46.244967682287097" lon="9.63407258503139">
        <ele>988.37</ele>
        <time>2013-11-24T09:48:54Z</time>
      </trkpt>
      <trkpt lat="46.245087711140513" lon="9.634156068786979">
        <ele>989.80999999999995</ele>
        <time>2013-11-24T09:49:09Z</time>
      </trkpt>
      <trkpt lat="46.245166668668389" lon="9.634222704917193">
        <ele>990.77999999999997</ele>
        <time>2013-11-24T09:49:24Z</time>
      </trkpt>
      <trkpt lat="46.245246548205614" lon="9.634297555312514">
        <ele>991.74000000000001</ele>
        <time>2013-11-24T09:49:35Z</time>
      </trkpt>
      <trkpt lat="46.245319973677397" lon="9.634356228634715">
        <ele>992.22000000000003</ele>
        <time>2013-11-24T09:49:43Z</time>
      </trkpt>
      <trkpt lat="46.245413850992918" lon="9.634537948295474">
        <ele>993.65999999999997</ele>
        <time>2013-11-24T09:49:58Z</time>
      </trkpt>
      <trkpt lat="46.245518373325467" lon="9.634703909978271">
        <ele>994.62</ele>
        <time>2013-11-24T09:50:11Z</time>
      </trkpt>
      <trkpt lat="46.245638905093074" lon="9.634866183623672">
        <ele>996.53999999999996</ele>
        <time>2013-11-24T09:50:24Z</time>
      </trkpt>
      <trkpt lat="46.245728926733136" lon="9.634916642680764">
        <ele>997.01999999999998</ele>
        <time>2013-11-24T09:50:36Z</time>
      </trkpt>
      <trkpt lat="46.245877202600241" lon="9.634954277426004">
        <ele>997.50999999999999</ele>
        <time>2013-11-24T09:50:57Z</time>
      </trkpt>
      <trkpt lat="46.245986837893724" lon="9.634967017918825">
        <ele>997.99000000000001</ele>
        <time>2013-11-24T09:51:07Z</time>
      </trkpt>
      <trkpt lat="46.246035117655993" lon="9.634977830573916">
        <ele>997.99000000000001</ele>
        <time>2013-11-24T09:51:11Z</time>
      </trkpt>
      <trkpt lat="46.246257908642292" lon="9.635004736483097">
        <ele>998.95000000000005</ele>
        <time>2013-11-24T09:51:29Z</time>
      </trkpt>
      <trkpt lat="46.2464664503932" lon="9.63512216694653">
        <ele>999.90999999999997</ele>
        <time>2013-11-24T09:51:45Z</time>
      </trkpt>
      <trkpt lat="46.246539792045951" lon="9.63517882861197">
        <ele>1000.39</ele>
        <time>2013-11-24T09:51:52Z</time>
      </trkpt>
      <trkpt lat="46.246583042666316" lon="9.635213697329164">
        <ele>999.90999999999997</ele>
        <time>2013-11-24T09:51:56Z</time>
      </trkpt>
      <trkpt lat="46.246756883338094" lon="9.635360548272729">
        <ele>1001.35</ele>
        <time>2013-11-24T09:52:13Z</time>
      </trkpt>
      <trkpt lat="46.246825447306037" lon="9.635397009551525">
        <ele>1003.27</ele>
        <time>2013-11-24T09:52:21Z</time>
      </trkpt>
      <trkpt lat="46.246958887204528" lon="9.635516619309783">
        <ele>1004.23</ele>
        <time>2013-11-24T09:52:35Z</time>
      </trkpt>
      <trkpt lat="46.247114455327392" lon="9.635579399764538">
        <ele>1004.72</ele>
        <time>2013-11-24T09:52:49Z</time>
      </trkpt>
      <trkpt lat="46.247263988479972" lon="9.635639665648341">
        <ele>1004.72</ele>
        <time>2013-11-24T09:53:03Z</time>
      </trkpt>
      <trkpt lat="46.247393656522036" lon="9.635653579607606">
        <ele>1005.6799999999999</ele>
        <time>2013-11-24T09:53:16Z</time>
      </trkpt>
      <trkpt lat="46.247536903247237" lon="9.635721473023295">
        <ele>1006.64</ele>
        <time>2013-11-24T09:53:32Z</time>
      </trkpt>
      <trkpt lat="46.247620889917016" lon="9.635807890444994">
        <ele>1007.6</ele>
        <time>2013-11-24T09:53:45Z</time>
      </trkpt>
      <trkpt lat="46.247717281803489" lon="9.635909143835306">
        <ele>1008.5599999999999</ele>
        <time>2013-11-24T09:53:59Z</time>
      </trkpt>
      <trkpt lat="46.247813254594803" lon="9.635978294536471">
        <ele>1009.04</ele>
        <time>2013-11-24T09:54:10Z</time>
      </trkpt>
      <trkpt lat="46.247893134132028" lon="9.636045768857002">
        <ele>1010</ele>
        <time>2013-11-24T09:54:21Z</time>
      </trkpt>
      <trkpt lat="46.248001847416162" lon="9.636115338653326">
        <ele>1010.48</ele>
        <time>2013-11-24T09:54:33Z</time>
      </trkpt>
      <trkpt lat="46.248122211545706" lon="9.636167557910085">
        <ele>1010.96</ele>
        <time>2013-11-24T09:54:47Z</time>
      </trkpt>
      <trkpt lat="46.248190272599459" lon="9.636239893734455">
        <ele>1012.41</ele>
        <time>2013-11-24T09:54:56Z</time>
      </trkpt>
      <trkpt lat="46.24828758649528" lon="9.636328238993883">
        <ele>1012.89</ele>
        <time>2013-11-24T09:55:09Z</time>
      </trkpt>
      <trkpt lat="46.248412728309631" lon="9.636412980034947">
        <ele>1014.33</ele>
        <time>2013-11-24T09:55:23Z</time>
      </trkpt>
      <trkpt lat="46.248502917587757" lon="9.636518508195877">
        <ele>1014.8099999999999</ele>
        <time>2013-11-24T09:55:36Z</time>
      </trkpt>
      <trkpt lat="46.248594783246517" lon="9.636605596169829">
        <ele>1016.25</ele>
        <time>2013-11-24T09:55:50Z</time>
      </trkpt>
      <trkpt lat="46.248601153492928" lon="9.636610541492701">
        <ele>1015.77</ele>
        <time>2013-11-24T09:55:51Z</time>
      </trkpt>
      <trkpt lat="46.248759822919965" lon="9.636710956692696">
        <ele>1017.6900000000001</ele>
        <time>2013-11-24T09:56:06Z</time>
      </trkpt>
      <trkpt lat="46.248868284747005" lon="9.636808773502708">
        <ele>1018.65</ele>
        <time>2013-11-24T09:56:20Z</time>
      </trkpt>
      <trkpt lat="46.248957552015781" lon="9.636952523142099">
        <ele>1019.62</ele>
        <time>2013-11-24T09:56:34Z</time>
      </trkpt>
      <trkpt lat="46.249020164832473" lon="9.637075737118721">
        <ele>1020.1</ele>
        <time>2013-11-24T09:56:46Z</time>
      </trkpt>
      <trkpt lat="46.249075485393405" lon="9.637242453172803">
        <ele>1022.02</ele>
        <time>2013-11-24T09:57:02Z</time>
      </trkpt>
      <trkpt lat="46.249107420444489" lon="9.637377401813865">
        <ele>1022.98</ele>
        <time>2013-11-24T09:57:16Z</time>
      </trkpt>
      <trkpt lat="46.249131392687559" lon="9.63757362216711">
        <ele>1024.4200000000001</ele>
        <time>2013-11-24T09:57:30Z</time>
      </trkpt>
      <trkpt lat="46.249176235869527" lon="9.637695411220193">
        <ele>1024.9000000000001</ele>
        <time>2013-11-24T09:57:41Z</time>
      </trkpt>
      <trkpt lat="46.249207584187388" lon="9.637898169457912">
        <ele>1026.8299999999999</ele>
        <time>2013-11-24T09:57:57Z</time>
      </trkpt>
      <trkpt lat="46.249239770695567" lon="9.638059856370091">
        <ele>1028.75</ele>
        <time>2013-11-24T09:58:09Z</time>
      </trkpt>
      <trkpt lat="46.24924236908555" lon="9.638070082291961">
        <ele>1028.27</ele>
        <time>2013-11-24T09:58:10Z</time>
      </trkpt>
      <trkpt lat="46.249304730445147" lon="9.638245431706309">
        <ele>1029.23</ele>
        <time>2013-11-24T09:58:28Z</time>
      </trkpt>
      <trkpt lat="46.249319985508919" lon="9.638465205207467">
        <ele>1030.6700000000001</ele>
        <time>2013-11-24T09:58:44Z</time>
      </trkpt>
      <trkpt lat="46.249371198937297" lon="9.638532847166061">
        <ele>1031.1500000000001</ele>
        <time>2013-11-24T09:58:58Z</time>
      </trkpt>
      <trkpt lat="46.24943733215332" lon="9.638713393360376">
        <ele>1033.0699999999999</ele>
        <time>2013-11-24T09:59:14Z</time>
      </trkpt>
      <trkpt lat="46.249435320496559" lon="9.638726217672229">
        <ele>1033.55</ele>
        <time>2013-11-24T09:59:15Z</time>
      </trkpt>
      <trkpt lat="46.249448899179697" lon="9.638944901525974">
        <ele>1034.52</ele>
        <time>2013-11-24T09:59:30Z</time>
      </trkpt>
      <trkpt lat="46.249482845887542" lon="9.639124190434814">
        <ele>1035.96</ele>
        <time>2013-11-24T09:59:44Z</time>
      </trkpt>
      <trkpt lat="46.249501788988709" lon="9.639189736917615">
        <ele>1035.96</ele>
        <time>2013-11-24T09:59:50Z</time>
      </trkpt>
      <trkpt lat="46.249518133699894" lon="9.639308508485556">
        <ele>1036.4400000000001</ele>
        <time>2013-11-24T10:00:04Z</time>
      </trkpt>
      <trkpt lat="46.249569514766335" lon="9.639474973082542">
        <ele>1035.96</ele>
        <time>2013-11-24T10:00:18Z</time>
      </trkpt>
      <trkpt lat="46.249572280794382" lon="9.639505986124277">
        <ele>1036.9200000000001</ele>
        <time>2013-11-24T10:00:20Z</time>
      </trkpt>
      <trkpt lat="46.249593403190374" lon="9.639720395207405">
        <ele>1036.9200000000001</ele>
        <time>2013-11-24T10:00:36Z</time>
      </trkpt>
      <trkpt lat="46.249657943844795" lon="9.63990286923945">
        <ele>1037.8800000000001</ele>
        <time>2013-11-24T10:00:50Z</time>
      </trkpt>
      <trkpt lat="46.249696249142289" lon="9.640134461224079">
        <ele>1037.4000000000001</ele>
        <time>2013-11-24T10:01:05Z</time>
      </trkpt>
      <trkpt lat="46.249731788411736" lon="9.640232864767313">
        <ele>1037.4000000000001</ele>
        <time>2013-11-24T10:01:13Z</time>
      </trkpt>
      <trkpt lat="46.249781744554639" lon="9.640448531135917">
        <ele>1037.8800000000001</ele>
        <time>2013-11-24T10:01:29Z</time>
      </trkpt>
      <trkpt lat="46.249810829758644" lon="9.640533355996013">
        <ele>1037.4000000000001</ele>
        <time>2013-11-24T10:01:36Z</time>
      </trkpt>
      <trkpt lat="46.249877046793699" lon="9.640770899131894">
        <ele>1037.4000000000001</ele>
        <time>2013-11-24T10:01:52Z</time>
      </trkpt>
      <trkpt lat="46.249913675710559" lon="9.640861675143242">
        <ele>1036.9200000000001</ele>
        <time>2013-11-24T10:01:59Z</time>
      </trkpt>
      <trkpt lat="46.249973857775331" lon="9.641075162217021">
        <ele>1037.4000000000001</ele>
        <time>2013-11-24T10:02:16Z</time>
      </trkpt>
      <trkpt lat="46.249977545812726" lon="9.641088657081127">
        <ele>1036.9200000000001</ele>
        <time>2013-11-24T10:02:17Z</time>
      </trkpt>
      <trkpt lat="46.250056084245443" lon="9.641249338164926">
        <ele>1037.4000000000001</ele>
        <time>2013-11-24T10:02:32Z</time>
      </trkpt>
      <trkpt lat="46.250149458646774" lon="9.641389399766922">
        <ele>1037.4000000000001</ele>
        <time>2013-11-24T10:02:46Z</time>
      </trkpt>
      <trkpt lat="46.250212239101529" lon="9.641473554074764">
        <ele>1036.9200000000001</ele>
        <time>2013-11-24T10:02:55Z</time>
      </trkpt>
      <trkpt lat="46.250277198851109" lon="9.641591990366578">
        <ele>1037.4000000000001</ele>
        <time>2013-11-24T10:03:07Z</time>
      </trkpt>
      <trkpt lat="46.250347187742591" lon="9.641740014776588">
        <ele>1036.9200000000001</ele>
        <time>2013-11-24T10:03:21Z</time>
      </trkpt>
      <trkpt lat="46.250444669276476" lon="9.641915448009968">
        <ele>1037.4000000000001</ele>
        <time>2013-11-24T10:03:36Z</time>
      </trkpt>
      <trkpt lat="46.250500744208694" lon="9.64205089956522">
        <ele>1037.4000000000001</ele>
        <time>2013-11-24T10:03:48Z</time>
      </trkpt>
      <trkpt lat="46.250552125275135" lon="9.642153661698103">
        <ele>1037.8800000000001</ele>
        <time>2013-11-24T10:03:57Z</time>
      </trkpt>
      <trkpt lat="46.250602751970291" lon="9.642238989472389">
        <ele>1037.4000000000001</ele>
        <time>2013-11-24T10:04:07Z</time>
      </trkpt>
      <trkpt lat="46.250685984268785" lon="9.642363712191582">
        <ele>1037.8800000000001</ele>
        <time>2013-11-24T10:04:21Z</time>
      </trkpt>
      <trkpt lat="46.25070484355092" lon="9.64239489287138">
        <ele>1037.4000000000001</ele>
        <time>2013-11-24T10:04:24Z</time>
      </trkpt>
      <trkpt lat="46.25080936588347" lon="9.642554316669703">
        <ele>1037.8800000000001</ele>
        <time>2013-11-24T10:04:40Z</time>
      </trkpt>
      <trkpt lat="46.250869380310178" lon="9.642629753798246">
        <ele>1037.4000000000001</ele>
        <time>2013-11-24T10:04:48Z</time>
      </trkpt>
      <trkpt lat="46.250889077782631" lon="9.642657749354839">
        <ele>1037.8800000000001</ele>
        <time>2013-11-24T10:04:51Z</time>
      </trkpt>
      <trkpt lat="46.25100533477962" lon="9.642754225060344">
        <ele>1037.8800000000001</ele>
        <time>2013-11-24T10:05:06Z</time>
      </trkpt>
      <trkpt lat="46.251069037243724" lon="9.642858412116766">
        <ele>1038.3599999999999</ele>
        <time>2013-11-24T10:05:20Z</time>
      </trkpt>
      <trkpt lat="46.251103151589632" lon="9.642926976084709">
        <ele>1038.3599999999999</ele>
        <time>2013-11-24T10:05:26Z</time>
      </trkpt>
      <trkpt lat="46.251198956742883" lon="9.64312051422894">
        <ele>1038.3599999999999</ele>
        <time>2013-11-24T10:05:43Z</time>
      </trkpt>
      <trkpt lat="46.251264251768589" lon="9.64329594746232">
        <ele>1038.8399999999999</ele>
        <time>2013-11-24T10:05:58Z</time>
      </trkpt>
      <trkpt lat="46.251321332529187" lon="9.643403654918075">
        <ele>1039.3199999999999</ele>
        <time>2013-11-24T10:06:09Z</time>
      </trkpt>
      <trkpt lat="46.251379586756229" lon="9.643536675721407">
        <ele>1039.3199999999999</ele>
        <time>2013-11-24T10:06:21Z</time>
      </trkpt>
      <trkpt lat="46.251421412453055" lon="9.643664248287678">
        <ele>1039.8</ele>
        <time>2013-11-24T10:06:34Z</time>
      </trkpt>
      <trkpt lat="46.251484947279096" lon="9.643823755905032">
        <ele>1039.8</ele>
        <time>2013-11-24T10:06:48Z</time>
      </trkpt>
      <trkpt lat="46.251572705805302" lon="9.643978821113706">
        <ele>1039.8</ele>
        <time>2013-11-24T10:07:03Z</time>
      </trkpt>
      <trkpt lat="46.251626014709473" lon="9.644132042303681">
        <ele>1040.76</ele>
        <time>2013-11-24T10:07:16Z</time>
      </trkpt>
      <trkpt lat="46.251642275601625" lon="9.644207144156098">
        <ele>1041.25</ele>
        <time>2013-11-24T10:07:23Z</time>
      </trkpt>
      <trkpt lat="46.251662895083427" lon="9.644357850775123">
        <ele>1041.25</ele>
        <time>2013-11-24T10:07:35Z</time>
      </trkpt>
      <trkpt lat="46.251710588112473" lon="9.644479807466269">
        <ele>1040.76</ele>
        <time>2013-11-24T10:07:48Z</time>
      </trkpt>
      <trkpt lat="46.251774961128831" lon="9.644685331732035">
        <ele>1041.25</ele>
        <time>2013-11-24T10:08:04Z</time>
      </trkpt>
      <trkpt lat="46.251802537590265" lon="9.644812904298306">
        <ele>1041.73</ele>
        <time>2013-11-24T10:08:15Z</time>
      </trkpt>
      <trkpt lat="46.251834472641349" lon="9.644998479634523">
        <ele>1042.21</ele>
        <time>2013-11-24T10:08:30Z</time>
      </trkpt>
      <trkpt lat="46.251833550632" lon="9.64514390565455">
        <ele>1042.21</ele>
        <time>2013-11-24T10:08:42Z</time>
      </trkpt>
      <trkpt lat="46.251822402700782" lon="9.645278016105294">
        <ele>1042.6900000000001</ele>
        <time>2013-11-24T10:08:53Z</time>
      </trkpt>
      <trkpt lat="46.251800861209631" lon="9.645441044121981">
        <ele>1042.6900000000001</ele>
        <time>2013-11-24T10:09:07Z</time>
      </trkpt>
      <trkpt lat="46.25179935246706" lon="9.645465519279242">
        <ele>1043.1700000000001</ele>
        <time>2013-11-24T10:09:09Z</time>
      </trkpt>
      <trkpt lat="46.251800777390599" lon="9.645610023289919">
        <ele>1044.1300000000001</ele>
        <time>2013-11-24T10:09:22Z</time>
      </trkpt>
      <trkpt lat="46.25181058421731" lon="9.645760813727975">
        <ele>1045.5699999999999</ele>
        <time>2013-11-24T10:09:37Z</time>
      </trkpt>
      <trkpt lat="46.251854840666056" lon="9.645888302475214">
        <ele>1046.53</ele>
        <time>2013-11-24T10:09:47Z</time>
      </trkpt>
      <trkpt lat="46.251927595585585" lon="9.645989555865526">
        <ele>1047.01</ele>
        <time>2013-11-24T10:10:01Z</time>
      </trkpt>
      <trkpt lat="46.251973444595933" lon="9.646127689629793">
        <ele>1047.97</ele>
        <time>2013-11-24T10:10:14Z</time>
      </trkpt>
      <trkpt lat="46.252011833712459" lon="9.646289125084877">
        <ele>1048.9400000000001</ele>
        <time>2013-11-24T10:10:29Z</time>
      </trkpt>
      <trkpt lat="46.252015437930822" lon="9.646463803946972">
        <ele>1050.3800000000001</ele>
        <time>2013-11-24T10:10:41Z</time>
      </trkpt>
      <trkpt lat="46.252056928351521" lon="9.646639572456479">
        <ele>1051.8199999999999</ele>
        <time>2013-11-24T10:10:56Z</time>
      </trkpt>
      <trkpt lat="46.252060364931822" lon="9.646655414253473">
        <ele>1051.8199999999999</ele>
        <time>2013-11-24T10:10:58Z</time>
      </trkpt>
      <trkpt lat="46.25207930803299" lon="9.646799666807056">
        <ele>1052.78</ele>
        <time>2013-11-24T10:11:11Z</time>
      </trkpt>
      <trkpt lat="46.25214384868741" lon="9.64692254550755">
        <ele>1053.26</ele>
        <time>2013-11-24T10:11:23Z</time>
      </trkpt>
      <trkpt lat="46.252181902527809" lon="9.647060176357627">
        <ele>1054.7</ele>
        <time>2013-11-24T10:11:35Z</time>
      </trkpt>
      <trkpt lat="46.252236552536488" lon="9.647146258503199">
        <ele>1056.1500000000001</ele>
        <time>2013-11-24T10:11:50Z</time>
      </trkpt>
      <trkpt lat="46.252240827307105" lon="9.647232256829739">
        <ele>1058.0699999999999</ele>
        <time>2013-11-24T10:12:01Z</time>
      </trkpt>
      <trkpt lat="46.252241581678391" lon="9.647269891574979">
        <ele>1059.99</ele>
        <time>2013-11-24T10:12:04Z</time>
      </trkpt>
      <trkpt lat="46.252240743488073" lon="9.647297635674477">
        <ele>1058.55</ele>
        <time>2013-11-24T10:12:06Z</time>
      </trkpt>
      <trkpt lat="46.252256333827972" lon="9.647341724485159">
        <ele>1059.03</ele>
        <time>2013-11-24T10:12:11Z</time>
      </trkpt>
      <trkpt lat="46.252308050170541" lon="9.647486144676805">
        <ele>1060.47</ele>
        <time>2013-11-24T10:12:25Z</time>
      </trkpt>
      <trkpt lat="46.252308301627636" lon="9.647501818835735">
        <ele>1061.4300000000001</ele>
        <time>2013-11-24T10:12:28Z</time>
      </trkpt>
      <trkpt lat="46.252309726551175" lon="9.647644395008683">
        <ele>1063.3599999999999</ele>
        <time>2013-11-24T10:12:40Z</time>
      </trkpt>
      <trkpt lat="46.252332692965865" lon="9.647736260667443">
        <ele>1065.28</ele>
        <time>2013-11-24T10:12:51Z</time>
      </trkpt>
      <trkpt lat="46.252332525327802" lon="9.647871293127537">
        <ele>1066.72</ele>
        <time>2013-11-24T10:13:03Z</time>
      </trkpt>
      <trkpt lat="46.252382984384894" lon="9.648027867078781">
        <ele>1067.2</ele>
        <time>2013-11-24T10:13:17Z</time>
      </trkpt>
      <trkpt lat="46.252466887235641" lon="9.64824914932251">
        <ele>1067.6800000000001</ele>
        <time>2013-11-24T10:13:36Z</time>
      </trkpt>
      <trkpt lat="46.252467641606927" lon="9.648288795724511">
        <ele>1068.1600000000001</ele>
        <time>2013-11-24T10:13:38Z</time>
      </trkpt>
      <trkpt lat="46.252549281343818" lon="9.64834101498127">
        <ele>1067.6800000000001</ele>
        <time>2013-11-24T10:13:54Z</time>
      </trkpt>
      <trkpt lat="46.252614744007587" lon="9.648491889238358">
        <ele>1068.1600000000001</ele>
        <time>2013-11-24T10:14:09Z</time>
      </trkpt>
      <trkpt lat="46.252620946615934" lon="9.648572942242026">
        <ele>1068.6400000000001</ele>
        <time>2013-11-24T10:14:15Z</time>
      </trkpt>
      <trkpt lat="46.252684313803911" lon="9.648706214502454">
        <ele>1069.5999999999999</ele>
        <time>2013-11-24T10:14:28Z</time>
      </trkpt>
      <trkpt lat="46.252748686820269" lon="9.648793553933501">
        <ele>1069.5999999999999</ele>
        <time>2013-11-24T10:14:39Z</time>
      </trkpt>
      <trkpt lat="46.252752961590886" lon="9.648807216435671">
        <ele>1070.0799999999999</ele>
        <time>2013-11-24T10:14:40Z</time>
      </trkpt>
      <trkpt lat="46.25280006788671" lon="9.648857172578573">
        <ele>1069.5999999999999</ele>
        <time>2013-11-24T10:14:46Z</time>
      </trkpt>
      <trkpt lat="46.252898471429944" lon="9.648985080420971">
        <ele>1069.1199999999999</ele>
        <time>2013-11-24T10:15:02Z</time>
      </trkpt>
      <trkpt lat="46.252921018749475" lon="9.64902313426137">
        <ele>1068.6400000000001</ele>
        <time>2013-11-24T10:15:05Z</time>
      </trkpt>
      <trkpt lat="46.252959156408906" lon="9.649063115939498">
        <ele>1068.1600000000001</ele>
        <time>2013-11-24T10:15:15Z</time>
      </trkpt>
      <trkpt lat="46.25290316529572" lon="9.649186078459024">
        <ele>1067.6800000000001</ele>
        <time>2013-11-24T10:15:29Z</time>
      </trkpt>
      <trkpt lat="46.25292956829071" lon="9.64916436932981">
        <ele>1065.28</ele>
        <time>2013-11-24T10:15:52Z</time>
      </trkpt>
      <trkpt lat="46.252933507785201" lon="9.649167889729142">
        <ele>1065.28</ele>
        <time>2013-11-24T10:15:53Z</time>
      </trkpt>
      <trkpt lat="46.252935435622931" lon="9.649169985204935">
        <ele>1070.5699999999999</ele>
        <time>2013-11-24T10:15:54Z</time>
      </trkpt>
      <trkpt lat="46.252940129488707" lon="9.649142324924469">
        <ele>1070.5699999999999</ele>
        <time>2013-11-24T10:15:55Z</time>
      </trkpt>
      <trkpt lat="46.252947757020593" lon="9.649123381823301">
        <ele>1067.6800000000001</ele>
        <time>2013-11-24T10:15:56Z</time>
      </trkpt>
      <trkpt lat="46.252979356795549" lon="9.64904417283833">
        <ele>1068.1600000000001</ele>
        <time>2013-11-24T10:16:01Z</time>
      </trkpt>
      <trkpt lat="46.252931915223598" lon="9.649077197536826">
        <ele>1068.6400000000001</ele>
        <time>2013-11-24T10:16:14Z</time>
      </trkpt>
      <trkpt lat="46.252999054268003" lon="9.64904610067606">
        <ele>1068.6400000000001</ele>
        <time>2013-11-24T10:16:22Z</time>
      </trkpt>
      <trkpt lat="46.253027301281691" lon="9.649124806746841">
        <ele>1068.6400000000001</ele>
        <time>2013-11-24T10:16:28Z</time>
      </trkpt>
      <trkpt lat="46.253095949068666" lon="9.649272663518786">
        <ele>1068.6400000000001</ele>
        <time>2013-11-24T10:16:39Z</time>
      </trkpt>
      <trkpt lat="46.253210194408894" lon="9.649366457015276">
        <ele>1068.1600000000001</ele>
        <time>2013-11-24T10:16:48Z</time>
      </trkpt>
      <trkpt lat="46.253289822489023" lon="9.649540465325117">
        <ele>1068.1600000000001</ele>
        <time>2013-11-24T10:17:02Z</time>
      </trkpt>
      <trkpt lat="46.253353776410222" lon="9.649639623239636">
        <ele>1067.2</ele>
        <time>2013-11-24T10:17:14Z</time>
      </trkpt>
      <trkpt lat="46.253357296809554" lon="9.649650184437633">
        <ele>1068.6400000000001</ele>
        <time>2013-11-24T10:17:15Z</time>
      </trkpt>
      <trkpt lat="46.253476236015558" lon="9.649751521646977">
        <ele>1069.1199999999999</ele>
        <time>2013-11-24T10:17:28Z</time>
      </trkpt>
      <trkpt lat="46.253484953194857" lon="9.64975998736918">
        <ele>1067.6800000000001</ele>
        <time>2013-11-24T10:17:29Z</time>
      </trkpt>
      <trkpt lat="46.253567012026906" lon="9.649907508864999">
        <ele>1068.6400000000001</ele>
        <time>2013-11-24T10:17:39Z</time>
      </trkpt>
      <trkpt lat="46.253639599308372" lon="9.650105573236942">
        <ele>1068.1600000000001</ele>
        <time>2013-11-24T10:17:54Z</time>
      </trkpt>
      <trkpt lat="46.253704642876983" lon="9.650315036997199">
        <ele>1068.6400000000001</ele>
        <time>2013-11-24T10:18:10Z</time>
      </trkpt>
      <trkpt lat="46.253673462197185" lon="9.65041670948267">
        <ele>1071.05</ele>
        <time>2013-11-24T10:18:19Z</time>
      </trkpt>
      <trkpt lat="46.2536864541471" lon="9.650588454678655">
        <ele>1072.01</ele>
        <time>2013-11-24T10:18:33Z</time>
      </trkpt>
      <trkpt lat="46.253672959282994" lon="9.650613516569138">
        <ele>1072.01</ele>
        <time>2013-11-24T10:18:47Z</time>
      </trkpt>
      <trkpt lat="46.253664158284664" lon="9.650646122172475">
        <ele>1072.97</ele>
        <time>2013-11-24T10:19:05Z</time>
      </trkpt>
      <trkpt lat="46.253715120255947" lon="9.650779226794839">
        <ele>1073.45</ele>
        <time>2013-11-24T10:19:12Z</time>
      </trkpt>
      <trkpt lat="46.253732135519385" lon="9.65084477327764">
        <ele>1073.9300000000001</ele>
        <time>2013-11-24T10:19:16Z</time>
      </trkpt>
      <trkpt lat="46.253817798569798" lon="9.650918701663613">
        <ele>1074.4100000000001</ele>
        <time>2013-11-24T10:19:27Z</time>
      </trkpt>
      <trkpt lat="46.253898935392499" lon="9.651096062734723">
        <ele>1075.3699999999999</ele>
        <time>2013-11-24T10:19:40Z</time>
      </trkpt>
      <trkpt lat="46.253934307023883" lon="9.650987852364779">
        <ele>1074.8900000000001</ele>
        <time>2013-11-24T10:20:00Z</time>
      </trkpt>
      <trkpt lat="46.253878902643919" lon="9.650902692228556">
        <ele>1074.8900000000001</ele>
        <time>2013-11-24T10:20:29Z</time>
      </trkpt>
      <trkpt lat="46.253823079168797" lon="9.650813257321715">
        <ele>1074.8900000000001</ele>
        <time>2013-11-24T10:21:00Z</time>
      </trkpt>
      <trkpt lat="46.253755604848266" lon="9.650693563744426">
        <ele>1074.8900000000001</ele>
        <time>2013-11-24T10:21:26Z</time>
      </trkpt>
      <trkpt lat="46.253738170489669" lon="9.650744777172804">
        <ele>1075.8499999999999</ele>
        <time>2013-11-24T10:21:29Z</time>
      </trkpt>
      <trkpt lat="46.253938414156437" lon="9.651125064119697">
        <ele>1075.8499999999999</ele>
        <time>2013-11-24T10:21:37Z</time>
      </trkpt>
      <trkpt lat="46.254079816862941" lon="9.651376688852906">
        <ele>1076.3299999999999</ele>
        <time>2013-11-24T10:21:51Z</time>
      </trkpt>
      <trkpt lat="46.254092305898666" lon="9.651412814855576">
        <ele>1075.8499999999999</ele>
        <time>2013-11-24T10:21:54Z</time>
      </trkpt>
      <trkpt lat="46.254099933430552" lon="9.651446510106325">
        <ele>1075.8499999999999</ele>
        <time>2013-11-24T10:21:56Z</time>
      </trkpt>
      <trkpt lat="46.254187021404505" lon="9.651757646352053">
        <ele>1074.8900000000001</ele>
        <time>2013-11-24T10:22:12Z</time>
      </trkpt>
      <trkpt lat="46.254230691120028" lon="9.651812044903636">
        <ele>1076.3299999999999</ele>
        <time>2013-11-24T10:22:23Z</time>
      </trkpt>
      <trkpt lat="46.254299003630877" lon="9.651901312172413">
        <ele>1077.29</ele>
        <time>2013-11-24T10:22:37Z</time>
      </trkpt>
      <trkpt lat="46.254310235381126" lon="9.651955626904964">
        <ele>1078.26</ele>
        <time>2013-11-24T10:22:41Z</time>
      </trkpt>
      <trkpt lat="46.2543133366853" lon="9.652171963825822">
        <ele>1076.8099999999999</ele>
        <time>2013-11-24T10:22:56Z</time>
      </trkpt>
      <trkpt lat="46.25440277159214" lon="9.652463151142001">
        <ele>1077.29</ele>
        <time>2013-11-24T10:23:11Z</time>
      </trkpt>
      <trkpt lat="46.254441915079951" lon="9.652522914111614">
        <ele>1076.8099999999999</ele>
        <time>2013-11-24T10:23:16Z</time>
      </trkpt>
      <trkpt lat="46.254495391622186" lon="9.652667250484228">
        <ele>1077.78</ele>
        <time>2013-11-24T10:23:27Z</time>
      </trkpt>
      <trkpt lat="46.254584826529026" lon="9.652691641822457">
        <ele>1077.29</ele>
        <time>2013-11-24T10:23:36Z</time>
      </trkpt>
      <trkpt lat="46.254622209817171" lon="9.652700275182724">
        <ele>1079.22</ele>
        <time>2013-11-24T10:23:39Z</time>
      </trkpt>
      <trkpt lat="46.254690438508987" lon="9.6527343057096">
        <ele>1078.74</ele>
        <time>2013-11-24T10:23:45Z</time>
      </trkpt>
      <trkpt lat="46.254768976941705" lon="9.652888281270862">
        <ele>1080.1800000000001</ele>
        <time>2013-11-24T10:23:59Z</time>
      </trkpt>
      <trkpt lat="46.254764450713992" lon="9.652925664559007">
        <ele>1079.7</ele>
        <time>2013-11-24T10:24:01Z</time>
      </trkpt>
      <trkpt lat="46.254790350794792" lon="9.653227245435119">
        <ele>1078.26</ele>
        <time>2013-11-24T10:24:18Z</time>
      </trkpt>
      <trkpt lat="46.254776101559401" lon="9.653514325618744">
        <ele>1079.22</ele>
        <time>2013-11-24T10:24:35Z</time>
      </trkpt>
      <trkpt lat="46.254751291126013" lon="9.653731333091855">
        <ele>1079.22</ele>
        <time>2013-11-24T10:24:49Z</time>
      </trkpt>
      <trkpt lat="46.25474726781249" lon="9.653925457969308">
        <ele>1079.7</ele>
        <time>2013-11-24T10:25:01Z</time>
      </trkpt>
      <trkpt lat="46.254716003313661" lon="9.654156882315874">
        <ele>1079.22</ele>
        <time>2013-11-24T10:25:15Z</time>
      </trkpt>
      <trkpt lat="46.254725810140371" lon="9.654415128752589">
        <ele>1079.7</ele>
        <time>2013-11-24T10:25:30Z</time>
      </trkpt>
      <trkpt lat="46.25474575906992" lon="9.654694246128202">
        <ele>1079.7</ele>
        <time>2013-11-24T10:25:47Z</time>
      </trkpt>
      <trkpt lat="46.254771742969751" lon="9.654865823686123">
        <ele>1080.1800000000001</ele>
        <time>2013-11-24T10:25:58Z</time>
      </trkpt>
      <trkpt lat="46.254926975816488" lon="9.655057517811656">
        <ele>1081.1400000000001</ele>
        <time>2013-11-24T10:26:14Z</time>
      </trkpt>
      <trkpt lat="46.254936195909977" lon="9.655063049867749">
        <ele>1081.1400000000001</ele>
        <time>2013-11-24T10:26:15Z</time>
      </trkpt>
      <trkpt lat="46.255010878667235" lon="9.655247535556555">
        <ele>1081.1400000000001</ele>
        <time>2013-11-24T10:26:30Z</time>
      </trkpt>
      <trkpt lat="46.255024122074246" lon="9.655296402052045">
        <ele>1081.1400000000001</ele>
        <time>2013-11-24T10:26:33Z</time>
      </trkpt>
      <trkpt lat="46.255055638030171" lon="9.655519025400281">
        <ele>1081.1400000000001</ele>
        <time>2013-11-24T10:26:47Z</time>
      </trkpt>
      <trkpt lat="46.25511129386723" lon="9.655740642920137">
        <ele>1082.5799999999999</ele>
        <time>2013-11-24T10:27:04Z</time>
      </trkpt>
      <trkpt lat="46.255173403769732" lon="9.655974749475718">
        <ele>1083.0599999999999</ele>
        <time>2013-11-24T10:27:21Z</time>
      </trkpt>
      <trkpt lat="46.255241129547358" lon="9.656237522140145">
        <ele>1083.54</ele>
        <time>2013-11-24T10:27:40Z</time>
      </trkpt>
      <trkpt lat="46.255255043506622" lon="9.656376913189888">
        <ele>1083.0599999999999</ele>
        <time>2013-11-24T10:27:55Z</time>
      </trkpt>
      <trkpt lat="46.25523149035871" lon="9.656444638967514">
        <ele>1083.0599999999999</ele>
        <time>2013-11-24T10:28:02Z</time>
      </trkpt>
      <trkpt lat="46.255266442894936" lon="9.656694084405899">
        <ele>1084.02</ele>
        <time>2013-11-24T10:28:18Z</time>
      </trkpt>
      <trkpt lat="46.255256300792098" lon="9.656780585646629">
        <ele>1085.95</ele>
        <time>2013-11-24T10:28:32Z</time>
      </trkpt>
      <trkpt lat="46.255261329934001" lon="9.656797517091036">
        <ele>1084.02</ele>
        <time>2013-11-24T10:28:33Z</time>
      </trkpt>
      <trkpt lat="46.255310028791428" lon="9.656735742464662">
        <ele>1083.54</ele>
        <time>2013-11-24T10:28:45Z</time>
      </trkpt>
      <trkpt lat="46.255351267755032" lon="9.656875217333436">
        <ele>1084.02</ele>
        <time>2013-11-24T10:29:02Z</time>
      </trkpt>
      <trkpt lat="46.255319081246853" lon="9.656998096033931">
        <ele>1084.02</ele>
        <time>2013-11-24T10:29:22Z</time>
      </trkpt>
      <trkpt lat="46.255304999649525" lon="9.657077891752124">
        <ele>1084.02</ele>
        <time>2013-11-24T10:29:58Z</time>
      </trkpt>
      <trkpt lat="46.25529695302248" lon="9.657079568132758">
        <ele>1084.5</ele>
        <time>2013-11-24T10:30:31Z</time>
      </trkpt>
      <trkpt lat="46.255296701565385" lon="9.657048052176833">
        <ele>1083.54</ele>
        <time>2013-11-24T10:31:01Z</time>
      </trkpt>
      <trkpt lat="46.255323523655534" lon="9.65702885761857">
        <ele>1084.02</ele>
        <time>2013-11-24T10:31:35Z</time>
      </trkpt>
      <trkpt lat="46.255335928872228" lon="9.657040340825915">
        <ele>1084.5</ele>
        <time>2013-11-24T10:31:42Z</time>
      </trkpt>
      <trkpt lat="46.25542645342648" lon="9.657223233953118">
        <ele>1084.02</ele>
        <time>2013-11-24T10:31:57Z</time>
      </trkpt>
      <trkpt lat="46.255455370992422" lon="9.65723161585629">
        <ele>1084.02</ele>
        <time>2013-11-24T10:32:08Z</time>
      </trkpt>
      <trkpt lat="46.255582189187407" lon="9.657486509531736">
        <ele>1084.5</ele>
        <time>2013-11-24T10:32:24Z</time>
      </trkpt>
      <trkpt lat="46.255690734833479" lon="9.657639898359776">
        <ele>1084.02</ele>
        <time>2013-11-24T10:32:39Z</time>
      </trkpt>
      <trkpt lat="46.25583104789257" lon="9.657801166176796">
        <ele>1084.5</ele>
        <time>2013-11-24T10:32:55Z</time>
      </trkpt>
      <trkpt lat="46.255903383716941" lon="9.657829580828548">
        <ele>1084.99</ele>
        <time>2013-11-24T10:33:02Z</time>
      </trkpt>
      <trkpt lat="46.256037661805749" lon="9.657985651865602">
        <ele>1084.5</ele>
        <time>2013-11-24T10:33:18Z</time>
      </trkpt>
      <trkpt lat="46.256092227995396" lon="9.658188242465258">
        <ele>1084.5</ele>
        <time>2013-11-24T10:33:34Z</time>
      </trkpt>
      <trkpt lat="46.256100190803409" lon="9.658307349309325">
        <ele>1084.02</ele>
        <time>2013-11-24T10:33:49Z</time>
      </trkpt>
      <trkpt lat="46.256097173318267" lon="9.6582982968539">
        <ele>1084.02</ele>
        <time>2013-11-24T10:34:10Z</time>
      </trkpt>
      <trkpt lat="46.256179232150316" lon="9.658441375941038">
        <ele>1084.99</ele>
        <time>2013-11-24T10:34:29Z</time>
      </trkpt>
      <trkpt lat="46.256244527176023" lon="9.658663747832179">
        <ele>1084.99</ele>
        <time>2013-11-24T10:34:45Z</time>
      </trkpt>
      <trkpt lat="46.256263135001063" lon="9.658792577683926">
        <ele>1084.99</ele>
        <time>2013-11-24T10:35:01Z</time>
      </trkpt>
      <trkpt lat="46.256278054788709" lon="9.658759217709303">
        <ele>1085.47</ele>
        <time>2013-11-24T10:35:29Z</time>
      </trkpt>
      <trkpt lat="46.256295153871179" lon="9.658941859379411">
        <ele>1085.47</ele>
        <time>2013-11-24T10:35:44Z</time>
      </trkpt>
      <trkpt lat="46.256269253790379" lon="9.659034395590425">
        <ele>1085.47</ele>
        <time>2013-11-24T10:36:03Z</time>
      </trkpt>
      <trkpt lat="46.256320970132947" lon="9.658961137756705">
        <ele>1085.47</ele>
        <time>2013-11-24T10:36:19Z</time>
      </trkpt>
      <trkpt lat="46.256232457235456" lon="9.659023247659206">
        <ele>1085.47</ele>
        <time>2013-11-24T10:36:35Z</time>
      </trkpt>
      <trkpt lat="46.256214939057827" lon="9.659022744745016">
        <ele>1085.95</ele>
        <time>2013-11-24T10:36:59Z</time>
      </trkpt>
      <trkpt lat="46.256199767813087" lon="9.659038921818137">
        <ele>1084.99</ele>
        <time>2013-11-24T10:37:26Z</time>
      </trkpt>
      <trkpt lat="46.256177052855492" lon="9.65909818187356">
        <ele>1086.9100000000001</ele>
        <time>2013-11-24T10:37:40Z</time>
      </trkpt>
      <trkpt lat="46.256134137511253" lon="9.659108072519302">
        <ele>1086.9100000000001</ele>
        <time>2013-11-24T10:37:45Z</time>
      </trkpt>
      <trkpt lat="46.256070267409086" lon="9.65906985104084">
        <ele>1086.9100000000001</ele>
        <time>2013-11-24T10:38:04Z</time>
      </trkpt>
      <trkpt lat="46.255921069532633" lon="9.659007657319307">
        <ele>1086.4300000000001</ele>
        <time>2013-11-24T10:38:24Z</time>
      </trkpt>
      <trkpt lat="46.255914783105254" lon="9.659032383933663">
        <ele>1086.9100000000001</ele>
        <time>2013-11-24T10:38:42Z</time>
      </trkpt>
      <trkpt lat="46.255841692909598" lon="9.658982427790761">
        <ele>1086.4300000000001</ele>
        <time>2013-11-24T10:38:56Z</time>
      </trkpt>
      <trkpt lat="46.255828030407429" lon="9.658937584608793">
        <ele>1086.4300000000001</ele>
        <time>2013-11-24T10:39:18Z</time>
      </trkpt>
      <trkpt lat="46.255860133096576" lon="9.659006483852863">
        <ele>1086.4300000000001</ele>
        <time>2013-11-24T10:39:34Z</time>
      </trkpt>
      <trkpt lat="46.255947221070528" lon="9.659003969281912">
        <ele>1086.4300000000001</ele>
        <time>2013-11-24T10:39:49Z</time>
      </trkpt>
      <trkpt lat="46.25595124438405" lon="9.65898871421814">
        <ele>1086.4300000000001</ele>
        <time>2013-11-24T10:40:03Z</time>
      </trkpt>
      <trkpt lat="46.255996841937304" lon="9.6590287797153">
        <ele>1085.95</ele>
        <time>2013-11-24T10:40:18Z</time>
      </trkpt>
      <trkpt lat="46.256005056202412" lon="9.659178564324975">
        <ele>1086.4300000000001</ele>
        <time>2013-11-24T10:40:31Z</time>
      </trkpt>
      <trkpt lat="46.256041685119271" lon="9.659221144393086">
        <ele>1086.4300000000001</ele>
        <time>2013-11-24T10:40:48Z</time>
      </trkpt>
      <trkpt lat="46.256031962111592" lon="9.659207398071885">
        <ele>1086.4300000000001</ele>
        <time>2013-11-24T10:40:57Z</time>
      </trkpt>
      <trkpt lat="46.256088959053159" lon="9.659105222672224">
        <ele>1085.95</ele>
        <time>2013-11-24T10:41:11Z</time>
      </trkpt>
      <trkpt lat="46.256169928237796" lon="9.659128524363041">
        <ele>1085.95</ele>
        <time>2013-11-24T10:41:16Z</time>
      </trkpt>
      <trkpt lat="46.25617403537035" lon="9.659190718084574">
        <ele>1085.47</ele>
        <time>2013-11-24T10:41:29Z</time>
      </trkpt>
      <trkpt lat="46.256172275170684" lon="9.659204967319965">
        <ele>1085.47</ele>
        <time>2013-11-24T10:41:44Z</time>
      </trkpt>
      <trkpt lat="46.256147380918264" lon="9.659160627052188">
        <ele>1085.47</ele>
        <time>2013-11-24T10:42:00Z</time>
      </trkpt>
      <trkpt lat="46.256230780854821" lon="9.659164315089583">
        <ele>1084.99</ele>
        <time>2013-11-24T10:42:18Z</time>
      </trkpt>
      <trkpt lat="46.256357599049807" lon="9.659136738628149">
        <ele>1084.99</ele>
        <time>2013-11-24T10:42:32Z</time>
      </trkpt>
      <trkpt lat="46.256348546594381" lon="9.659222736954689">
        <ele>1084.5</ele>
        <time>2013-11-24T10:42:46Z</time>
      </trkpt>
      <trkpt lat="46.25634997151792" lon="9.659229777753353">
        <ele>1084.5</ele>
        <time>2013-11-24T10:42:47Z</time>
      </trkpt>
      <trkpt lat="46.256392216309905" lon="9.659301359206438">
        <ele>1084.5</ele>
        <time>2013-11-24T10:42:53Z</time>
      </trkpt>
      <trkpt lat="46.256453320384026" lon="9.659497328102589">
        <ele>1085.47</ele>
        <time>2013-11-24T10:43:07Z</time>
      </trkpt>
      <trkpt lat="46.256515430286527" lon="9.659735206514597">
        <ele>1085.47</ele>
        <time>2013-11-24T10:43:27Z</time>
      </trkpt>
      <trkpt lat="46.256484836339951" lon="9.659865545108914">
        <ele>1085.47</ele>
        <time>2013-11-24T10:43:43Z</time>
      </trkpt>
      <trkpt lat="46.256501851603389" lon="9.659881806001067">
        <ele>1084.02</ele>
        <time>2013-11-24T10:43:49Z</time>
      </trkpt>
      <trkpt lat="46.256504198536277" lon="9.659884907305241">
        <ele>1088.3499999999999</ele>
        <time>2013-11-24T10:43:50Z</time>
      </trkpt>
      <trkpt lat="46.256503192707896" lon="9.659883817657828">
        <ele>1085.95</ele>
        <time>2013-11-24T10:43:51Z</time>
      </trkpt>
      <trkpt lat="46.25655616633594" lon="9.659846853464842">
        <ele>1085.47</ele>
        <time>2013-11-24T10:44:06Z</time>
      </trkpt>
      <trkpt lat="46.256576869636774" lon="9.659950453788042">
        <ele>1085.95</ele>
        <time>2013-11-24T10:44:21Z</time>
      </trkpt>
      <trkpt lat="46.256613414734602" lon="9.660099651664496">
        <ele>1085.95</ele>
        <time>2013-11-24T10:44:36Z</time>
      </trkpt>
      <trkpt lat="46.256675943732262" lon="9.660279946401715">
        <ele>1086.4300000000001</ele>
        <time>2013-11-24T10:44:52Z</time>
      </trkpt>
      <trkpt lat="46.256769988685846" lon="9.66042771935463">
        <ele>1086.9100000000001</ele>
        <time>2013-11-24T10:45:09Z</time>
      </trkpt>
      <trkpt lat="46.256817765533924" lon="9.66054255142808">
        <ele>1087.8699999999999</ele>
        <time>2013-11-24T10:45:24Z</time>
      </trkpt>
      <trkpt lat="46.256866967305541" lon="9.660565936937928">
        <ele>1088.3499999999999</ele>
        <time>2013-11-24T10:45:40Z</time>
      </trkpt>
      <trkpt lat="46.256897309795022" lon="9.660493014380336">
        <ele>1088.8299999999999</ele>
        <time>2013-11-24T10:45:58Z</time>
      </trkpt>
      <trkpt lat="46.256968220695853" lon="9.660561578348279">
        <ele>1088.8299999999999</ele>
        <time>2013-11-24T10:46:15Z</time>
      </trkpt>
      <trkpt lat="46.257138205692172" lon="9.660636596381664">
        <ele>1089.3099999999999</ele>
        <time>2013-11-24T10:46:31Z</time>
      </trkpt>
      <trkpt lat="46.25716544687748" lon="9.660653946921229">
        <ele>1090.27</ele>
        <time>2013-11-24T10:46:35Z</time>
      </trkpt>
      <trkpt lat="46.257273489609361" lon="9.660794176161289">
        <ele>1091.23</ele>
        <time>2013-11-24T10:46:51Z</time>
      </trkpt>
      <trkpt lat="46.257376335561275" lon="9.660901883617044">
        <ele>1091.23</ele>
        <time>2013-11-24T10:47:06Z</time>
      </trkpt>
      <trkpt lat="46.257444815710187" lon="9.661044711247087">
        <ele>1093.1600000000001</ele>
        <time>2013-11-24T10:47:21Z</time>
      </trkpt>
      <trkpt lat="46.257480690255761" lon="9.661131212487817">
        <ele>1094.5999999999999</ele>
        <time>2013-11-24T10:47:29Z</time>
      </trkpt>
      <trkpt lat="46.257518660277128" lon="9.661285942420363">
        <ele>1097</ele>
        <time>2013-11-24T10:47:43Z</time>
      </trkpt>
      <trkpt lat="46.257571550086141" lon="9.661379735916853">
        <ele>1098.4400000000001</ele>
        <time>2013-11-24T10:47:56Z</time>
      </trkpt>
      <trkpt lat="46.257576579228044" lon="9.661462130025029">
        <ele>1097.96</ele>
        <time>2013-11-24T10:48:10Z</time>
      </trkpt>
      <trkpt lat="46.257608095183969" lon="9.661676120012999">
        <ele>1099.4000000000001</ele>
        <time>2013-11-24T10:48:24Z</time>
      </trkpt>
      <trkpt lat="46.257640030235052" lon="9.661738146096468">
        <ele>1099.4000000000001</ele>
        <time>2013-11-24T10:48:41Z</time>
      </trkpt>
      <trkpt lat="46.257656291127205" lon="9.661825150251389">
        <ele>1099.8900000000001</ele>
        <time>2013-11-24T10:48:46Z</time>
      </trkpt>
      <trkpt lat="46.257695937529206" lon="9.662068644538522">
        <ele>1100.8499999999999</ele>
        <time>2013-11-24T10:49:00Z</time>
      </trkpt>
      <trkpt lat="46.257699709385633" lon="9.662082809954882">
        <ele>1100.3699999999999</ele>
        <time>2013-11-24T10:49:01Z</time>
      </trkpt>
      <trkpt lat="46.257751006633043" lon="9.662216166034341">
        <ele>1101.8099999999999</ele>
        <time>2013-11-24T10:49:16Z</time>
      </trkpt>
      <trkpt lat="46.257749330252409" lon="9.662250196561217">
        <ele>1103.25</ele>
        <time>2013-11-24T10:49:19Z</time>
      </trkpt>
      <trkpt lat="46.257821498438716" lon="9.662442058324814">
        <ele>1104.21</ele>
        <time>2013-11-24T10:49:36Z</time>
      </trkpt>
      <trkpt lat="46.257826946675777" lon="9.662528056651354">
        <ele>1106.1300000000001</ele>
        <time>2013-11-24T10:49:44Z</time>
      </trkpt>
      <trkpt lat="46.257874304428697" lon="9.662686390802264">
        <ele>1106.6099999999999</ele>
        <time>2013-11-24T10:49:59Z</time>
      </trkpt>
      <trkpt lat="46.257922081276774" lon="9.662831984460354">
        <ele>1106.6099999999999</ele>
        <time>2013-11-24T10:50:13Z</time>
      </trkpt>
      <trkpt lat="46.257964326068759" lon="9.66301403939724">
        <ele>1106.1300000000001</ele>
        <time>2013-11-24T10:50:30Z</time>
      </trkpt>
      <trkpt lat="46.257995758205652" lon="9.66314697638154">
        <ele>1105.1700000000001</ele>
        <time>2013-11-24T10:50:41Z</time>
      </trkpt>
      <trkpt lat="46.25800933688879" lon="9.66329843737185">
        <ele>1105.1700000000001</ele>
        <time>2013-11-24T10:50:54Z</time>
      </trkpt>
      <trkpt lat="46.258034482598305" lon="9.663343196734786">
        <ele>1105.6500000000001</ele>
        <time>2013-11-24T10:51:08Z</time>
      </trkpt>
      <trkpt lat="46.257977485656738" lon="9.66348803602159">
        <ele>1105.6500000000001</ele>
        <time>2013-11-24T10:51:26Z</time>
      </trkpt>
      <trkpt lat="46.258042361587286" lon="9.663310591131449">
        <ele>1106.1300000000001</ele>
        <time>2013-11-24T10:51:50Z</time>
      </trkpt>
      <trkpt lat="46.258028782904148" lon="9.6633580327034">
        <ele>1105.6500000000001</ele>
        <time>2013-11-24T10:52:04Z</time>
      </trkpt>
      <trkpt lat="46.258004056289792" lon="9.663467332720757">
        <ele>1105.1700000000001</ele>
        <time>2013-11-24T10:52:17Z</time>
      </trkpt>
      <trkpt lat="46.257981928065419" lon="9.663513097912073">
        <ele>1104.6900000000001</ele>
        <time>2013-11-24T10:52:34Z</time>
      </trkpt>
      <trkpt lat="46.257974551990628" lon="9.663694901391864">
        <ele>1105.1700000000001</ele>
        <time>2013-11-24T10:52:54Z</time>
      </trkpt>
      <trkpt lat="46.257946472615004" lon="9.663798753172159">
        <ele>1104.21</ele>
        <time>2013-11-24T10:53:12Z</time>
      </trkpt>
      <trkpt lat="46.257923170924187" lon="9.66369079425931">
        <ele>1103.73</ele>
        <time>2013-11-24T10:53:29Z</time>
      </trkpt>
      <trkpt lat="46.257875645533204" lon="9.66371912509203">
        <ele>1104.6900000000001</ele>
        <time>2013-11-24T10:53:46Z</time>
      </trkpt>
      <trkpt lat="46.257928283885121" lon="9.663797495886684">
        <ele>1105.1700000000001</ele>
        <time>2013-11-24T10:54:04Z</time>
      </trkpt>
      <trkpt lat="46.257853517308831" lon="9.663821049034596">
        <ele>1105.6500000000001</ele>
        <time>2013-11-24T10:54:19Z</time>
      </trkpt>
      <trkpt lat="46.257871119305491" lon="9.663914171978831">
        <ele>1105.1700000000001</ele>
        <time>2013-11-24T10:54:39Z</time>
      </trkpt>
      <trkpt lat="46.257855864241719" lon="9.663883913308382">
        <ele>1105.1700000000001</ele>
        <time>2013-11-24T10:54:57Z</time>
      </trkpt>
      <trkpt lat="46.257772045210004" lon="9.663858851417899">
        <ele>1105.6500000000001</ele>
        <time>2013-11-24T10:55:10Z</time>
      </trkpt>
      <trkpt lat="46.25777673907578" lon="9.663850301876664">
        <ele>1104.21</ele>
        <time>2013-11-24T10:55:12Z</time>
      </trkpt>
      <trkpt lat="46.257847901433706" lon="9.663782576099038">
        <ele>1104.21</ele>
        <time>2013-11-24T10:55:32Z</time>
      </trkpt>
      <trkpt lat="46.257878914475441" lon="9.663860779255629">
        <ele>1104.21</ele>
        <time>2013-11-24T10:56:03Z</time>
      </trkpt>
      <trkpt lat="46.257910011336207" lon="9.663787856698036">
        <ele>1104.21</ele>
        <time>2013-11-24T10:56:33Z</time>
      </trkpt>
      <trkpt lat="46.257903138175607" lon="9.663738654926419">
        <ele>1104.21</ele>
        <time>2013-11-24T10:57:03Z</time>
      </trkpt>
      <trkpt lat="46.257902383804321" lon="9.663718705996871">
        <ele>1104.21</ele>
        <time>2013-11-24T10:57:38Z</time>
      </trkpt>
      <trkpt lat="46.257894253358245" lon="9.66371962800622">
        <ele>1104.21</ele>
        <time>2013-11-24T10:57:54Z</time>
      </trkpt>
      <trkpt lat="46.257750587537885" lon="9.663475630804896">
        <ele>1103.25</ele>
        <time>2013-11-24T10:58:12Z</time>
      </trkpt>
      <trkpt lat="46.257729632779956" lon="9.663315787911415">
        <ele>1102.77</ele>
        <time>2013-11-24T10:58:29Z</time>
      </trkpt>
      <trkpt lat="46.257594265043736" lon="9.663214031606913">
        <ele>1101.8099999999999</ele>
        <time>2013-11-24T10:58:44Z</time>
      </trkpt>
      <trkpt lat="46.257611196488142" lon="9.663112945854664">
        <ele>1100.8499999999999</ele>
        <time>2013-11-24T10:59:01Z</time>
      </trkpt>
      <trkpt lat="46.257465938106179" lon="9.66301211155951">
        <ele>1100.3699999999999</ele>
        <time>2013-11-24T10:59:17Z</time>
      </trkpt>
      <trkpt lat="46.257379269227386" lon="9.662982020527124">
        <ele>1100.8499999999999</ele>
        <time>2013-11-24T10:59:29Z</time>
      </trkpt>
      <trkpt lat="46.25735018402338" lon="9.66300523839891">
        <ele>1097.48</ele>
        <time>2013-11-24T10:59:34Z</time>
      </trkpt>
      <trkpt lat="46.257351525127888" lon="9.663006914779544">
        <ele>1101.8099999999999</ele>
        <time>2013-11-24T10:59:35Z</time>
      </trkpt>
      <trkpt lat="46.257364684715867" lon="9.663030551746488">
        <ele>1101.8099999999999</ele>
        <time>2013-11-24T10:59:43Z</time>
      </trkpt>
      <trkpt lat="46.257333168759942" lon="9.663004651665688">
        <ele>1101.3299999999999</ele>
        <time>2013-11-24T10:59:52Z</time>
      </trkpt>
      <trkpt lat="46.257329061627388" lon="9.662864841520786">
        <ele>1099.4000000000001</ele>
        <time>2013-11-24T11:00:10Z</time>
      </trkpt>
      <trkpt lat="46.257234010845423" lon="9.662836007773876">
        <ele>1098.4400000000001</ele>
        <time>2013-11-24T11:00:24Z</time>
      </trkpt>
      <trkpt lat="46.257139798253775" lon="9.662717487663031">
        <ele>1097.96</ele>
        <time>2013-11-24T11:00:39Z</time>
      </trkpt>
      <trkpt lat="46.25706042163074" lon="9.662691168487072">
        <ele>1096.52</ele>
        <time>2013-11-24T11:00:54Z</time>
      </trkpt>
      <trkpt lat="46.256929663941264" lon="9.662650600075722">
        <ele>1096.04</ele>
        <time>2013-11-24T11:01:07Z</time>
      </trkpt>
      <trkpt lat="46.256768647581339" lon="9.662671219557524">
        <ele>1096.04</ele>
        <time>2013-11-24T11:01:20Z</time>
      </trkpt>
      <trkpt lat="46.256687175482512" lon="9.662637943401933">
        <ele>1097.48</ele>
        <time>2013-11-24T11:01:34Z</time>
      </trkpt>
      <trkpt lat="46.256652725860476" lon="9.662805665284395">
        <ele>1096.04</ele>
        <time>2013-11-24T11:01:49Z</time>
      </trkpt>
      <trkpt lat="46.256593130528927" lon="9.662599973380566">
        <ele>1095.0799999999999</ele>
        <time>2013-11-24T11:02:08Z</time>
      </trkpt>
      <trkpt lat="46.256547952070832" lon="9.662411632016301">
        <ele>1094.1199999999999</ele>
        <time>2013-11-24T11:02:22Z</time>
      </trkpt>
      <trkpt lat="46.256448877975345" lon="9.662276431918144">
        <ele>1093.1600000000001</ele>
        <time>2013-11-24T11:02:34Z</time>
      </trkpt>
      <trkpt lat="46.256402358412743" lon="9.662222787737846">
        <ele>1092.6800000000001</ele>
        <time>2013-11-24T11:02:38Z</time>
      </trkpt>
      <trkpt lat="46.256304290145636" lon="9.662018353119493">
        <ele>1091.23</ele>
        <time>2013-11-24T11:02:54Z</time>
      </trkpt>
      <trkpt lat="46.256231032311916" lon="9.661931181326509">
        <ele>1090.27</ele>
        <time>2013-11-24T11:03:07Z</time>
      </trkpt>
      <trkpt lat="46.256300769746304" lon="9.661954818293452">
        <ele>1090.27</ele>
        <time>2013-11-24T11:03:21Z</time>
      </trkpt>
      <trkpt lat="46.256229942664504" lon="9.661879297345877">
        <ele>1089.79</ele>
        <time>2013-11-24T11:03:39Z</time>
      </trkpt>
      <trkpt lat="46.256220219656825" lon="9.661869406700134">
        <ele>1089.79</ele>
        <time>2013-11-24T11:03:40Z</time>
      </trkpt>
      <trkpt lat="46.256009498611093" lon="9.661924643442035">
        <ele>1089.79</ele>
        <time>2013-11-24T11:03:57Z</time>
      </trkpt>
      <trkpt lat="46.255919644609094" lon="9.661881728097796">
        <ele>1089.79</ele>
        <time>2013-11-24T11:04:12Z</time>
      </trkpt>
      <trkpt lat="46.2559072393924" lon="9.661857504397631">
        <ele>1089.79</ele>
        <time>2013-11-24T11:04:14Z</time>
      </trkpt>
      <trkpt lat="46.255828952416778" lon="9.661759184673429">
        <ele>1087.8699999999999</ele>
        <time>2013-11-24T11:04:28Z</time>
      </trkpt>
      <trkpt lat="46.255773715674877" lon="9.661738984286785">
        <ele>1086.9100000000001</ele>
        <time>2013-11-24T11:04:33Z</time>
      </trkpt>
      <trkpt lat="46.255707498639822" lon="9.661685926839709">
        <ele>1087.3900000000001</ele>
        <time>2013-11-24T11:04:46Z</time>
      </trkpt>
      <trkpt lat="46.255671540275216" lon="9.6615897025913">
        <ele>1087.3900000000001</ele>
        <time>2013-11-24T11:05:02Z</time>
      </trkpt>
      <trkpt lat="46.255631893873215" lon="9.661522228270769">
        <ele>1087.3900000000001</ele>
        <time>2013-11-24T11:05:15Z</time>
      </trkpt>
      <trkpt lat="46.255566347390413" lon="9.661464476957917">
        <ele>1085.47</ele>
        <time>2013-11-24T11:05:27Z</time>
      </trkpt>
      <trkpt lat="46.255521588027477" lon="9.661383675411344">
        <ele>1085.95</ele>
        <time>2013-11-24T11:05:46Z</time>
      </trkpt>
      <trkpt lat="46.255510691553354" lon="9.66137520968914">
        <ele>1086.4300000000001</ele>
        <time>2013-11-24T11:05:49Z</time>
      </trkpt>
      <trkpt lat="46.255489904433489" lon="9.661412844434381">
        <ele>1085.95</ele>
        <time>2013-11-24T11:06:04Z</time>
      </trkpt>
      <trkpt lat="46.255433075129986" lon="9.661429021507502">
        <ele>1086.4300000000001</ele>
        <time>2013-11-24T11:06:19Z</time>
      </trkpt>
      <trkpt lat="46.255308268591762" lon="9.66133950278163">
        <ele>1085.95</ele>
        <time>2013-11-24T11:06:35Z</time>
      </trkpt>
      <trkpt lat="46.25530818477273" lon="9.661372778937221">
        <ele>1085.95</ele>
        <time>2013-11-24T11:06:55Z</time>
      </trkpt>
      <trkpt lat="46.255252864211798" lon="9.661325002089143">
        <ele>1086.4300000000001</ele>
        <time>2013-11-24T11:07:11Z</time>
      </trkpt>
      <trkpt lat="46.255167871713638" lon="9.661228861659765">
        <ele>1087.8699999999999</ele>
        <time>2013-11-24T11:07:25Z</time>
      </trkpt>
      <trkpt lat="46.255102073773742" lon="9.661102714017034">
        <ele>1088.3499999999999</ele>
        <time>2013-11-24T11:07:39Z</time>
      </trkpt>
      <trkpt lat="46.25501842238009" lon="9.660919401794672">
        <ele>1086.4300000000001</ele>
        <time>2013-11-24T11:07:54Z</time>
      </trkpt>
      <trkpt lat="46.254948182031512" lon="9.660812364891172">
        <ele>1085.95</ele>
        <time>2013-11-24T11:08:10Z</time>
      </trkpt>
      <trkpt lat="46.254930412396789" lon="9.660683535039425">
        <ele>1085.95</ele>
        <time>2013-11-24T11:08:24Z</time>
      </trkpt>
      <trkpt lat="46.254867715761065" lon="9.660526541993022">
        <ele>1084.5</ele>
        <time>2013-11-24T11:08:39Z</time>
      </trkpt>
      <trkpt lat="46.25480979681015" lon="9.660393772646785">
        <ele>1084.5</ele>
        <time>2013-11-24T11:08:51Z</time>
      </trkpt>
      <trkpt lat="46.254752548411489" lon="9.660251531749964">
        <ele>1084.02</ele>
        <time>2013-11-24T11:09:05Z</time>
      </trkpt>
      <trkpt lat="46.254727905616164" lon="9.660197552293539">
        <ele>1083.0599999999999</ele>
        <time>2013-11-24T11:09:19Z</time>
      </trkpt>
      <trkpt lat="46.254730587825179" lon="9.660192187875509">
        <ele>1083.54</ele>
        <time>2013-11-24T11:09:38Z</time>
      </trkpt>
      <trkpt lat="46.2547174282372" lon="9.660166371613741">
        <ele>1084.02</ele>
        <time>2013-11-24T11:09:55Z</time>
      </trkpt>
      <trkpt lat="46.25468666665256" lon="9.660111805424094">
        <ele>1083.0599999999999</ele>
        <time>2013-11-24T11:10:10Z</time>
      </trkpt>
      <trkpt lat="46.254649367183447" lon="9.660007702186704">
        <ele>1083.54</ele>
        <time>2013-11-24T11:10:24Z</time>
      </trkpt>
      <trkpt lat="46.254639225080609" lon="9.659949112683535">
        <ele>1083.0599999999999</ele>
        <time>2013-11-24T11:10:37Z</time>
      </trkpt>
      <trkpt lat="46.254615839570761" lon="9.659892031922936">
        <ele>1082.0999999999999</ele>
        <time>2013-11-24T11:10:47Z</time>
      </trkpt>
      <trkpt lat="46.254620533436537" lon="9.659887840971351">
        <ele>1085.47</ele>
        <time>2013-11-24T11:10:48Z</time>
      </trkpt>
      <trkpt lat="46.254612486809492" lon="9.65985850431025">
        <ele>1082.0999999999999</ele>
        <time>2013-11-24T11:10:54Z</time>
      </trkpt>
      <trkpt lat="46.254637632519007" lon="9.659724980592728">
        <ele>1083.0599999999999</ele>
        <time>2013-11-24T11:11:06Z</time>
      </trkpt>
      <trkpt lat="46.254619276151061" lon="9.659708887338638">
        <ele>1082.5799999999999</ele>
        <time>2013-11-24T11:11:25Z</time>
      </trkpt>
      <trkpt lat="46.254627322778106" lon="9.659695811569691">
        <ele>1082.5799999999999</ele>
        <time>2013-11-24T11:11:26Z</time>
      </trkpt>
      <trkpt lat="46.254643080756068" lon="9.659554492682219">
        <ele>1082.0999999999999</ele>
        <time>2013-11-24T11:11:41Z</time>
      </trkpt>
      <trkpt lat="46.25468272715807" lon="9.659586176276207">
        <ele>1082.0999999999999</ele>
        <time>2013-11-24T11:12:06Z</time>
      </trkpt>
      <trkpt lat="46.254645679146051" lon="9.659573184326291">
        <ele>1082.0999999999999</ele>
        <time>2013-11-24T11:12:33Z</time>
      </trkpt>
      <trkpt lat="46.254659425467253" lon="9.659587685018778">
        <ele>1081.6199999999999</ele>
        <time>2013-11-24T11:12:58Z</time>
      </trkpt>
      <trkpt lat="46.254674680531025" lon="9.659556420519948">
        <ele>1082.0999999999999</ele>
        <time>2013-11-24T11:13:20Z</time>
      </trkpt>
      <trkpt lat="46.254631262272596" lon="9.659561784937978">
        <ele>1082.5799999999999</ele>
        <time>2013-11-24T11:13:42Z</time>
      </trkpt>
      <trkpt lat="46.25464073382318" lon="9.659589612856507">
        <ele>1082.0999999999999</ele>
        <time>2013-11-24T11:14:04Z</time>
      </trkpt>
      <trkpt lat="46.254739807918668" lon="9.659627666696906">
        <ele>1082.0999999999999</ele>
        <time>2013-11-24T11:14:23Z</time>
      </trkpt>
      <trkpt lat="46.254763528704643" lon="9.659540494903922">
        <ele>1082.5799999999999</ele>
        <time>2013-11-24T11:14:37Z</time>
      </trkpt>
      <trkpt lat="46.254842905327678" lon="9.659540913999081">
        <ele>1082.5799999999999</ele>
        <time>2013-11-24T11:14:51Z</time>
      </trkpt>
      <trkpt lat="46.254874253645539" lon="9.659567652270198">
        <ele>1082.5799999999999</ele>
        <time>2013-11-24T11:15:06Z</time>
      </trkpt>
      <trkpt lat="46.254954468458891" lon="9.659543847665191">
        <ele>1082.0999999999999</ele>
        <time>2013-11-24T11:15:19Z</time>
      </trkpt>
      <trkpt lat="46.254998641088605" lon="9.659503949806094">
        <ele>1083.0599999999999</ele>
        <time>2013-11-24T11:15:28Z</time>
      </trkpt>
      <trkpt lat="46.255089333280921" lon="9.659481151029468">
        <ele>1084.02</ele>
        <time>2013-11-24T11:15:43Z</time>
      </trkpt>
      <trkpt lat="46.255149096250534" lon="9.659462962299585">
        <ele>1083.54</ele>
        <time>2013-11-24T11:15:56Z</time>
      </trkpt>
      <trkpt lat="46.255260575562716" lon="9.659453323110938">
        <ele>1083.54</ele>
        <time>2013-11-24T11:16:13Z</time>
      </trkpt>
      <trkpt lat="46.255281614139676" lon="9.659391716122627">
        <ele>1082.5799999999999</ele>
        <time>2013-11-24T11:16:26Z</time>
      </trkpt>
      <trkpt lat="46.255292845889926" lon="9.659396493807435">
        <ele>1083.54</ele>
        <time>2013-11-24T11:16:28Z</time>
      </trkpt>
      <trkpt lat="46.255399631336331" lon="9.659335976466537">
        <ele>1084.02</ele>
        <time>2013-11-24T11:16:38Z</time>
      </trkpt>
      <trkpt lat="46.255431734025478" lon="9.659323068335652">
        <ele>1084.02</ele>
        <time>2013-11-24T11:16:40Z</time>
      </trkpt>
      <trkpt lat="46.255518738180399" lon="9.659237070009112">
        <ele>1083.54</ele>
        <time>2013-11-24T11:16:56Z</time>
      </trkpt>
      <trkpt lat="46.25554564408958" lon="9.659259868785739">
        <ele>1083.54</ele>
        <time>2013-11-24T11:17:24Z</time>
      </trkpt>
      <trkpt lat="46.255613537505269" lon="9.65922374278307">
        <ele>1083.54</ele>
        <time>2013-11-24T11:17:47Z</time>
      </trkpt>
      <trkpt lat="46.255813529714942" lon="9.659153167158365">
        <ele>1083.54</ele>
        <time>2013-11-24T11:18:04Z</time>
      </trkpt>
      <trkpt lat="46.255878154188395" lon="9.658994665369391">
        <ele>1084.02</ele>
        <time>2013-11-24T11:18:18Z</time>
      </trkpt>
      <trkpt lat="46.255894415080547" lon="9.658864494413137">
        <ele>1083.54</ele>
        <time>2013-11-24T11:18:42Z</time>
      </trkpt>
      <trkpt lat="46.255880082026124" lon="9.659034479409456">
        <ele>1083.54</ele>
        <time>2013-11-24T11:19:07Z</time>
      </trkpt>
      <trkpt lat="46.255881926044822" lon="9.659019224345684">
        <ele>1083.54</ele>
        <time>2013-11-24T11:19:27Z</time>
      </trkpt>
      <trkpt lat="46.255911262705922" lon="9.659016290679574">
        <ele>1084.5</ele>
        <time>2013-11-24T11:19:45Z</time>
      </trkpt>
      <trkpt lat="46.255990052595735" lon="9.659081334248185">
        <ele>1084.5</ele>
        <time>2013-11-24T11:20:02Z</time>
      </trkpt>
      <trkpt lat="46.256070099771023" lon="9.659113017842174">
        <ele>1084.02</ele>
        <time>2013-11-24T11:20:29Z</time>
      </trkpt>
      <trkpt lat="46.255989130586386" lon="9.659038335084915">
        <ele>1084.02</ele>
        <time>2013-11-24T11:20:46Z</time>
      </trkpt>
      <trkpt lat="46.256040427833796" lon="9.659161046147347">
        <ele>1084.99</ele>
        <time>2013-11-24T11:21:01Z</time>
      </trkpt>
      <trkpt lat="46.256043445318937" lon="9.659264395013452">
        <ele>1084.5</ele>
        <time>2013-11-24T11:21:22Z</time>
      </trkpt>
      <trkpt lat="46.256038164719939" lon="9.659270094707608">
        <ele>1084.99</ele>
        <time>2013-11-24T11:21:27Z</time>
      </trkpt>
      <trkpt lat="46.256020981818438" lon="9.659257186576724">
        <ele>1097</ele>
        <time>2013-11-24T13:41:04Z</time>
      </trkpt>
      <trkpt lat="46.256235977634788" lon="9.659068677574396">
        <ele>1096.52</ele>
        <time>2013-11-24T13:41:36Z</time>
      </trkpt>
      <trkpt lat="46.256223656237125" lon="9.659168422222138">
        <ele>1097.48</ele>
        <time>2013-11-24T13:41:59Z</time>
      </trkpt>
      <trkpt lat="46.256047384813428" lon="9.659201866015792">
        <ele>1097.48</ele>
        <time>2013-11-24T13:42:23Z</time>
      </trkpt>
      <trkpt lat="46.25609097070992" lon="9.659118801355362">
        <ele>1097.48</ele>
        <time>2013-11-24T13:42:45Z</time>
      </trkpt>
      <trkpt lat="46.256052246317267" lon="9.659098936244845">
        <ele>1097</ele>
        <time>2013-11-24T13:43:10Z</time>
      </trkpt>
      <trkpt lat="46.256020562723279" lon="9.659178061410785">
        <ele>1097.48</ele>
        <time>2013-11-24T13:43:39Z</time>
      </trkpt>
      <trkpt lat="46.25608267262578" lon="9.659228604286909">
        <ele>1097.48</ele>
        <time>2013-11-24T13:44:01Z</time>
      </trkpt>
      <trkpt lat="46.256151655688882" lon="9.659071192145348">
        <ele>1097.96</ele>
        <time>2013-11-24T13:44:25Z</time>
      </trkpt>
      <trkpt lat="46.25623413361609" lon="9.659057026728988">
        <ele>1097</ele>
        <time>2013-11-24T13:44:43Z</time>
      </trkpt>
      <trkpt lat="46.256338153034449" lon="9.659003131091595">
        <ele>1097.48</ele>
        <time>2013-11-24T13:45:14Z</time>
      </trkpt>
      <trkpt lat="46.256203288212419" lon="9.659010758623481">
        <ele>1097</ele>
        <time>2013-11-24T13:45:31Z</time>
      </trkpt>
      <trkpt lat="46.256258692592382" lon="9.658987205475569">
        <ele>1096.04</ele>
        <time>2013-11-24T13:45:46Z</time>
      </trkpt>
      <trkpt lat="46.256298422813416" lon="9.658994916826487">
        <ele>1096.52</ele>
        <time>2013-11-24T13:46:05Z</time>
      </trkpt>
      <trkpt lat="46.256339997053146" lon="9.658997850492597">
        <ele>1096.04</ele>
        <time>2013-11-24T13:46:27Z</time>
      </trkpt>
      <trkpt lat="46.256360029801726" lon="9.658873630687594">
        <ele>1096.04</ele>
        <time>2013-11-24T13:46:45Z</time>
      </trkpt>
      <trkpt lat="46.256363047286868" lon="9.65889785438776">
        <ele>1096.52</ele>
        <time>2013-11-24T13:47:12Z</time>
      </trkpt>
      <trkpt lat="46.256324155256152" lon="9.658872038125992">
        <ele>1096.52</ele>
        <time>2013-11-24T13:47:35Z</time>
      </trkpt>
      <trkpt lat="46.256373273208737" lon="9.658861309289932">
        <ele>1096.04</ele>
        <time>2013-11-24T13:47:57Z</time>
      </trkpt>
      <trkpt lat="46.256363382562995" lon="9.658906403928995">
        <ele>1096.52</ele>
        <time>2013-11-24T13:48:22Z</time>
      </trkpt>
      <trkpt lat="46.256294148042798" lon="9.658988546580076">
        <ele>1096.04</ele>
        <time>2013-11-24T13:48:51Z</time>
      </trkpt>
      <trkpt lat="46.256323233246803" lon="9.658973542973399">
        <ele>1096.04</ele>
        <time>2013-11-24T13:49:15Z</time>
      </trkpt>
      <trkpt lat="46.256301021203399" lon="9.658974884077907">
        <ele>1096.04</ele>
        <time>2013-11-24T13:49:35Z</time>
      </trkpt>
      <trkpt lat="46.256310995668173" lon="9.658941943198443">
        <ele>1096.52</ele>
        <time>2013-11-24T13:50:00Z</time>
      </trkpt>
      <trkpt lat="46.256290376186371" lon="9.659002460539341">
        <ele>1096.04</ele>
        <time>2013-11-24T13:50:19Z</time>
      </trkpt>
      <trkpt lat="46.256304876878858" lon="9.658947894349694">
        <ele>1096.52</ele>
        <time>2013-11-24T13:50:40Z</time>
      </trkpt>
      <trkpt lat="46.256321556866169" lon="9.658975638449192">
        <ele>1096.52</ele>
        <time>2013-11-24T13:50:57Z</time>
      </trkpt>
      <trkpt lat="46.256300769746304" lon="9.658867344260216">
        <ele>1096.04</ele>
        <time>2013-11-24T13:51:15Z</time>
      </trkpt>
      <trkpt lat="46.256263302639127" lon="9.658634830266237">
        <ele>1096.04</ele>
        <time>2013-11-24T13:51:30Z</time>
      </trkpt>
      <trkpt lat="46.2562595307827" lon="9.658615803346038">
        <ele>1096.04</ele>
        <time>2013-11-24T13:51:31Z</time>
      </trkpt>
      <trkpt lat="46.25624536536634" lon="9.65859929099679">
        <ele>1095.5599999999999</ele>
        <time>2013-11-24T13:51:36Z</time>
      </trkpt>
      <trkpt lat="46.25625173561275" lon="9.658599877730012">
        <ele>1095.5599999999999</ele>
        <time>2013-11-24T13:51:37Z</time>
      </trkpt>
      <trkpt lat="46.256148386746645" lon="9.658386306837201">
        <ele>1095.0799999999999</ele>
        <time>2013-11-24T13:51:56Z</time>
      </trkpt>
      <trkpt lat="46.256118211895227" lon="9.658115655183792">
        <ele>1095.0799999999999</ele>
        <time>2013-11-24T13:52:13Z</time>
      </trkpt>
      <trkpt lat="46.256076721474528" lon="9.657985735684633">
        <ele>1095.0799999999999</ele>
        <time>2013-11-24T13:52:28Z</time>
      </trkpt>
      <trkpt lat="46.255928948521614" lon="9.657775769010186">
        <ele>1095.0799999999999</ele>
        <time>2013-11-24T13:52:44Z</time>
      </trkpt>
      <trkpt lat="46.255870442837477" lon="9.657741151750088">
        <ele>1095.5599999999999</ele>
        <time>2013-11-24T13:52:50Z</time>
      </trkpt>
      <trkpt lat="46.255717976018786" lon="9.65767334215343">
        <ele>1095.0799999999999</ele>
        <time>2013-11-24T13:53:06Z</time>
      </trkpt>
      <trkpt lat="46.255572885274887" lon="9.657475277781487">
        <ele>1095.5599999999999</ele>
        <time>2013-11-24T13:53:24Z</time>
      </trkpt>
      <trkpt lat="46.255451766774058" lon="9.657316105440259">
        <ele>1095.0799999999999</ele>
        <time>2013-11-24T13:53:40Z</time>
      </trkpt>
      <trkpt lat="46.255445396527648" lon="9.657282829284668">
        <ele>1094.5999999999999</ele>
        <time>2013-11-24T13:53:45Z</time>
      </trkpt>
      <trkpt lat="46.255401726812124" lon="9.656998431310058">
        <ele>1094.5999999999999</ele>
        <time>2013-11-24T13:54:04Z</time>
      </trkpt>
      <trkpt lat="46.25531212426722" lon="9.656834732741118">
        <ele>1094.5999999999999</ele>
        <time>2013-11-24T13:54:21Z</time>
      </trkpt>
      <trkpt lat="46.255299467593431" lon="9.656565841287375">
        <ele>1094.1199999999999</ele>
        <time>2013-11-24T13:54:36Z</time>
      </trkpt>
      <trkpt lat="46.255303155630827" lon="9.656393257901073">
        <ele>1093.1600000000001</ele>
        <time>2013-11-24T13:54:51Z</time>
      </trkpt>
      <trkpt lat="46.255275160074234" lon="9.656222686171532">
        <ele>1093.6400000000001</ele>
        <time>2013-11-24T13:55:05Z</time>
      </trkpt>
      <trkpt lat="46.255237776786089" lon="9.655949519947171">
        <ele>1092.2</ele>
        <time>2013-11-24T13:55:22Z</time>
      </trkpt>
      <trkpt lat="46.255180947482586" lon="9.655644502490759">
        <ele>1091.23</ele>
        <time>2013-11-24T13:55:39Z</time>
      </trkpt>
      <trkpt lat="46.255123615264893" lon="9.655331941321492">
        <ele>1090.27</ele>
        <time>2013-11-24T13:55:53Z</time>
      </trkpt>
      <trkpt lat="46.255042059347034" lon="9.655090291053057">
        <ele>1089.3099999999999</ele>
        <time>2013-11-24T13:56:08Z</time>
      </trkpt>
      <trkpt lat="46.254873583093286" lon="9.65494335629046">
        <ele>1088.8299999999999</ele>
        <time>2013-11-24T13:56:23Z</time>
      </trkpt>
      <trkpt lat="46.254853717982769" lon="9.654908152297139">
        <ele>1088.8299999999999</ele>
        <time>2013-11-24T13:56:25Z</time>
      </trkpt>
      <trkpt lat="46.254803175106645" lon="9.65463456697762">
        <ele>1088.8299999999999</ele>
        <time>2013-11-24T13:56:41Z</time>
      </trkpt>
      <trkpt lat="46.25477559864521" lon="9.654450165107846">
        <ele>1088.8299999999999</ele>
        <time>2013-11-24T13:56:55Z</time>
      </trkpt>
      <trkpt lat="46.254726815968752" lon="9.654228547587991">
        <ele>1088.8299999999999</ele>
        <time>2013-11-24T13:57:12Z</time>
      </trkpt>
      <trkpt lat="46.254713404923677" lon="9.654057892039418">
        <ele>1088.3499999999999</ele>
        <time>2013-11-24T13:57:25Z</time>
      </trkpt>
      <trkpt lat="46.254749530926347" lon="9.653859743848443">
        <ele>1088.3499999999999</ele>
        <time>2013-11-24T13:57:41Z</time>
      </trkpt>
      <trkpt lat="46.254764115437865" lon="9.653659835457802">
        <ele>1088.3499999999999</ele>
        <time>2013-11-24T13:57:57Z</time>
      </trkpt>
      <trkpt lat="46.254798732697964" lon="9.653471829369664">
        <ele>1088.3499999999999</ele>
        <time>2013-11-24T13:58:13Z</time>
      </trkpt>
      <trkpt lat="46.254805186763406" lon="9.653282314538956">
        <ele>1088.3499999999999</ele>
        <time>2013-11-24T13:58:27Z</time>
      </trkpt>
      <trkpt lat="46.254831589758396" lon="9.653172930702567">
        <ele>1088.3499999999999</ele>
        <time>2013-11-24T13:58:44Z</time>
      </trkpt>
      <trkpt lat="46.254805941134691" lon="9.653031611815095">
        <ele>1088.3499999999999</ele>
        <time>2013-11-24T13:58:57Z</time>
      </trkpt>
      <trkpt lat="46.254787081852555" lon="9.652923652902246">
        <ele>1089.3099999999999</ele>
        <time>2013-11-24T13:59:05Z</time>
      </trkpt>
      <trkpt lat="46.254731342196465" lon="9.652760205790401">
        <ele>1088.3499999999999</ele>
        <time>2013-11-24T13:59:18Z</time>
      </trkpt>
      <trkpt lat="46.254660598933697" lon="9.652639254927635">
        <ele>1088.3499999999999</ele>
        <time>2013-11-24T13:59:34Z</time>
      </trkpt>
      <trkpt lat="46.254541659727693" lon="9.652631208300591">
        <ele>1087.3900000000001</ele>
        <time>2013-11-24T13:59:43Z</time>
      </trkpt>
      <trkpt lat="46.25449170358479" lon="9.652584018185735">
        <ele>1087.3900000000001</ele>
        <time>2013-11-24T13:59:48Z</time>
      </trkpt>
      <trkpt lat="46.254451805725694" lon="9.652372794225812">
        <ele>1086.9100000000001</ele>
        <time>2013-11-24T14:00:02Z</time>
      </trkpt>
      <trkpt lat="46.254419619217515" lon="9.652227703481913">
        <ele>1086.9100000000001</ele>
        <time>2013-11-24T14:00:16Z</time>
      </trkpt>
      <trkpt lat="46.254409644752741" lon="9.652037266641855">
        <ele>1086.9100000000001</ele>
        <time>2013-11-24T14:00:32Z</time>
      </trkpt>
      <trkpt lat="46.254412578418851" lon="9.651909107342362">
        <ele>1088.3499999999999</ele>
        <time>2013-11-24T14:00:43Z</time>
      </trkpt>
      <trkpt lat="46.254367148503661" lon="9.651725795120001">
        <ele>1086.4300000000001</ele>
        <time>2013-11-24T14:01:00Z</time>
      </trkpt>
      <trkpt lat="46.254306714981794" lon="9.651587828993797">
        <ele>1085.95</ele>
        <time>2013-11-24T14:01:13Z</time>
      </trkpt>
      <trkpt lat="46.25421367585659" lon="9.651463776826859">
        <ele>1084.99</ele>
        <time>2013-11-24T14:01:30Z</time>
      </trkpt>
      <trkpt lat="46.254154583439231" lon="9.651207793504">
        <ele>1085.47</ele>
        <time>2013-11-24T14:01:48Z</time>
      </trkpt>
      <trkpt lat="46.254032542929053" lon="9.65111299417913">
        <ele>1085.47</ele>
        <time>2013-11-24T14:02:02Z</time>
      </trkpt>
      <trkpt lat="46.253930116072297" lon="9.65093806385994">
        <ele>1084.5</ele>
        <time>2013-11-24T14:02:18Z</time>
      </trkpt>
      <trkpt lat="46.25380958430469" lon="9.650780148804188">
        <ele>1084.02</ele>
        <time>2013-11-24T14:02:37Z</time>
      </trkpt>
      <trkpt lat="46.253732470795512" lon="9.650661461055279">
        <ele>1083.0599999999999</ele>
        <time>2013-11-24T14:02:49Z</time>
      </trkpt>
      <trkpt lat="46.253720233216882" lon="9.650602536275983">
        <ele>1082.5799999999999</ele>
        <time>2013-11-24T14:03:01Z</time>
      </trkpt>
      <trkpt lat="46.253670863807201" lon="9.650461217388511">
        <ele>1081.1400000000001</ele>
        <time>2013-11-24T14:03:19Z</time>
      </trkpt>
      <trkpt lat="46.253616632893682" lon="9.650295507162809">
        <ele>1079.22</ele>
        <time>2013-11-24T14:03:33Z</time>
      </trkpt>
      <trkpt lat="46.25350272282958" lon="9.650151757523418">
        <ele>1079.22</ele>
        <time>2013-11-24T14:03:47Z</time>
      </trkpt>
      <trkpt lat="46.253494760021567" lon="9.650141866877675">
        <ele>1079.22</ele>
        <time>2013-11-24T14:03:48Z</time>
      </trkpt>
      <trkpt lat="46.253401301801205" lon="9.649977162480354">
        <ele>1079.22</ele>
        <time>2013-11-24T14:04:04Z</time>
      </trkpt>
      <trkpt lat="46.253340365365148" lon="9.649843974038959">
        <ele>1079.22</ele>
        <time>2013-11-24T14:04:18Z</time>
      </trkpt>
      <trkpt lat="46.253281524404883" lon="9.649794017896056">
        <ele>1078.74</ele>
        <time>2013-11-24T14:04:34Z</time>
      </trkpt>
      <trkpt lat="46.253185216337442" lon="9.649675749242306">
        <ele>1078.74</ele>
        <time>2013-11-24T14:04:49Z</time>
      </trkpt>
      <trkpt lat="46.253083292394876" lon="9.64960852637887">
        <ele>1079.22</ele>
        <time>2013-11-24T14:05:07Z</time>
      </trkpt>
      <trkpt lat="46.253035180270672" lon="9.64951129630208">
        <ele>1079.22</ele>
        <time>2013-11-24T14:05:20Z</time>
      </trkpt>
      <trkpt lat="46.252981955185533" lon="9.649471482262015">
        <ele>1078.74</ele>
        <time>2013-11-24T14:05:27Z</time>
      </trkpt>
      <trkpt lat="46.252850694581866" lon="9.649391183629632">
        <ele>1079.22</ele>
        <time>2013-11-24T14:05:42Z</time>
      </trkpt>
      <trkpt lat="46.252789339050651" lon="9.649256821721792">
        <ele>1079.7</ele>
        <time>2013-11-24T14:05:58Z</time>
      </trkpt>
      <trkpt lat="46.252703256905079" lon="9.649174008518457">
        <ele>1079.7</ele>
        <time>2013-11-24T14:06:11Z</time>
      </trkpt>
      <trkpt lat="46.252695629373193" lon="9.649168644100428">
        <ele>1079.7</ele>
        <time>2013-11-24T14:06:12Z</time>
      </trkpt>
      <trkpt lat="46.252636117860675" lon="9.649092452600598">
        <ele>1078.74</ele>
        <time>2013-11-24T14:06:23Z</time>
      </trkpt>
      <trkpt lat="46.252513574436307" lon="9.648931855335832">
        <ele>1078.26</ele>
        <time>2013-11-24T14:06:39Z</time>
      </trkpt>
      <trkpt lat="46.252454062923789" lon="9.648756757378578">
        <ele>1077.78</ele>
        <time>2013-11-24T14:06:54Z</time>
      </trkpt>
      <trkpt lat="46.252452973276377" lon="9.647896019741893">
        <ele>1077.29</ele>
        <time>2013-11-24T14:07:10Z</time>
      </trkpt>
      <trkpt lat="46.252415170893073" lon="9.647696698084474">
        <ele>1075.8499999999999</ele>
        <time>2013-11-24T14:07:26Z</time>
      </trkpt>
      <trkpt lat="46.252419529482722" lon="9.647535178810358">
        <ele>1073.45</ele>
        <time>2013-11-24T14:07:42Z</time>
      </trkpt>
      <trkpt lat="46.252408884465694" lon="9.647430740296841">
        <ele>1071.05</ele>
        <time>2013-11-24T14:07:58Z</time>
      </trkpt>
      <trkpt lat="46.252336800098419" lon="9.647226557135582">
        <ele>1068.6400000000001</ele>
        <time>2013-11-24T14:08:18Z</time>
      </trkpt>
      <trkpt lat="46.252332190051675" lon="9.647051291540265">
        <ele>1066.24</ele>
        <time>2013-11-24T14:08:37Z</time>
      </trkpt>
      <trkpt lat="46.252291118726134" lon="9.64697434566915">
        <ele>1064.8</ele>
        <time>2013-11-24T14:08:48Z</time>
      </trkpt>
      <trkpt lat="46.252240324392915" lon="9.646847192198038">
        <ele>1063.3599999999999</ele>
        <time>2013-11-24T14:09:04Z</time>
      </trkpt>
      <trkpt lat="46.252183243632317" lon="9.646707130596042">
        <ele>1062.3900000000001</ele>
        <time>2013-11-24T14:09:18Z</time>
      </trkpt>
      <trkpt lat="46.252163546159863" lon="9.646584838628769">
        <ele>1061.4300000000001</ele>
        <time>2013-11-24T14:09:32Z</time>
      </trkpt>
      <trkpt lat="46.25210084952414" lon="9.646449806168675">
        <ele>1059.99</ele>
        <time>2013-11-24T14:09:48Z</time>
      </trkpt>
      <trkpt lat="46.252067070454359" lon="9.646266242489219">
        <ele>1058.55</ele>
        <time>2013-11-24T14:10:05Z</time>
      </trkpt>
      <trkpt lat="46.252026837319136" lon="9.646126180887222">
        <ele>1057.5899999999999</ele>
        <time>2013-11-24T14:10:21Z</time>
      </trkpt>
      <trkpt lat="46.251986855641007" lon="9.645958710461855">
        <ele>1056.1500000000001</ele>
        <time>2013-11-24T14:10:36Z</time>
      </trkpt>
      <trkpt lat="46.251909071579576" lon="9.645798448473215">
        <ele>1055.1800000000001</ele>
        <time>2013-11-24T14:10:53Z</time>
      </trkpt>
      <trkpt lat="46.251867916435003" lon="9.645668528974056">
        <ele>1053.74</ele>
        <time>2013-11-24T14:11:07Z</time>
      </trkpt>
      <trkpt lat="46.251870347186923" lon="9.645569287240505">
        <ele>1052.78</ele>
        <time>2013-11-24T14:11:17Z</time>
      </trkpt>
      <trkpt lat="46.251878812909126" lon="9.645536513999105">
        <ele>1052.3</ele>
        <time>2013-11-24T14:11:20Z</time>
      </trkpt>
      <trkpt lat="46.251880824565887" lon="9.645322859287262">
        <ele>1051.3399999999999</ele>
        <time>2013-11-24T14:11:34Z</time>
      </trkpt>
      <trkpt lat="46.251899683848023" lon="9.645117502659559">
        <ele>1050.3800000000001</ele>
        <time>2013-11-24T14:11:49Z</time>
      </trkpt>
      <trkpt lat="46.251855595037341" lon="9.644893119111657">
        <ele>1049.4200000000001</ele>
        <time>2013-11-24T14:12:06Z</time>
      </trkpt>
      <trkpt lat="46.251825839281082" lon="9.6446249820292">
        <ele>1048.9400000000001</ele>
        <time>2013-11-24T14:12:24Z</time>
      </trkpt>
      <trkpt lat="46.251803040504456" lon="9.644537307322025">
        <ele>1048.9400000000001</ele>
        <time>2013-11-24T14:12:31Z</time>
      </trkpt>
      <trkpt lat="46.251744786277413" lon="9.644286185503006">
        <ele>1048.45</ele>
        <time>2013-11-24T14:12:48Z</time>
      </trkpt>
      <trkpt lat="46.251707738265395" lon="9.64418426156044">
        <ele>1048.45</ele>
        <time>2013-11-24T14:12:57Z</time>
      </trkpt>
      <trkpt lat="46.251674462109804" lon="9.644072111696005">
        <ele>1048.45</ele>
        <time>2013-11-24T14:13:07Z</time>
      </trkpt>
      <trkpt lat="46.251623332500458" lon="9.643964488059282">
        <ele>1048.45</ele>
        <time>2013-11-24T14:13:15Z</time>
      </trkpt>
      <trkpt lat="46.251505063846707" lon="9.643731974065304">
        <ele>1047.01</ele>
        <time>2013-11-24T14:13:33Z</time>
      </trkpt>
      <trkpt lat="46.251421999186277" lon="9.643530054017901">
        <ele>1046.53</ele>
        <time>2013-11-24T14:13:48Z</time>
      </trkpt>
      <trkpt lat="46.251417053863406" lon="9.643503902480006">
        <ele>1046.53</ele>
        <time>2013-11-24T14:13:50Z</time>
      </trkpt>
      <trkpt lat="46.251382855698466" lon="9.643351016566157">
        <ele>1046.53</ele>
        <time>2013-11-24T14:14:03Z</time>
      </trkpt>
      <trkpt lat="46.251300880685449" lon="9.643152114003897">
        <ele>1046.05</ele>
        <time>2013-11-24T14:14:18Z</time>
      </trkpt>
      <trkpt lat="46.251273052766919" lon="9.643086399883032">
        <ele>1046.05</ele>
        <time>2013-11-24T14:14:24Z</time>
      </trkpt>
      <trkpt lat="46.251138858497143" lon="9.642870733514428">
        <ele>1045.0899999999999</ele>
        <time>2013-11-24T14:14:43Z</time>
      </trkpt>
      <trkpt lat="46.251004245132208" lon="9.642745591700077">
        <ele>1045.0899999999999</ele>
        <time>2013-11-24T14:14:58Z</time>
      </trkpt>
      <trkpt lat="46.250849682837725" lon="9.642555909231305">
        <ele>1045.0899999999999</ele>
        <time>2013-11-24T14:15:15Z</time>
      </trkpt>
      <trkpt lat="46.250829230993986" lon="9.642515005543828">
        <ele>1045.0899999999999</ele>
        <time>2013-11-24T14:15:18Z</time>
      </trkpt>
      <trkpt lat="46.250715656206012" lon="9.642324736341834">
        <ele>1044.6099999999999</ele>
        <time>2013-11-24T14:15:34Z</time>
      </trkpt>
      <trkpt lat="46.250609876587987" lon="9.642121726647019">
        <ele>1044.6099999999999</ele>
        <time>2013-11-24T14:15:49Z</time>
      </trkpt>
      <trkpt lat="46.250492865219712" lon="9.641920141875744">
        <ele>1044.6099999999999</ele>
        <time>2013-11-24T14:16:05Z</time>
      </trkpt>
      <trkpt lat="46.250376105308533" lon="9.641747558489442">
        <ele>1044.1300000000001</ele>
        <time>2013-11-24T14:16:24Z</time>
      </trkpt>
      <trkpt lat="46.250258591026068" lon="9.641567934304476">
        <ele>1044.1300000000001</ele>
        <time>2013-11-24T14:16:40Z</time>
      </trkpt>
      <trkpt lat="46.250176867470145" lon="9.641411192715168">
        <ele>1044.1300000000001</ele>
        <time>2013-11-24T14:16:55Z</time>
      </trkpt>
      <trkpt lat="46.250053402036428" lon="9.641201561316848">
        <ele>1043.6500000000001</ele>
        <time>2013-11-24T14:17:13Z</time>
      </trkpt>
      <trkpt lat="46.249961201101542" lon="9.641035431995988">
        <ele>1043.6500000000001</ele>
        <time>2013-11-24T14:17:31Z</time>
      </trkpt>
      <trkpt lat="46.249919710680842" lon="9.640900064259768">
        <ele>1043.6500000000001</ele>
        <time>2013-11-24T14:17:47Z</time>
      </trkpt>
      <trkpt lat="46.249885177239776" lon="9.640764696523547">
        <ele>1043.6500000000001</ele>
        <time>2013-11-24T14:17:59Z</time>
      </trkpt>
      <trkpt lat="46.249825246632099" lon="9.640608122572303">
        <ele>1043.6500000000001</ele>
        <time>2013-11-24T14:18:17Z</time>
      </trkpt>
      <trkpt lat="46.249784845858812" lon="9.640581803396344">
        <ele>1043.6500000000001</ele>
        <time>2013-11-24T14:18:36Z</time>
      </trkpt>
      <trkpt lat="46.249781744554639" lon="9.640576355159283">
        <ele>1043.6500000000001</ele>
        <time>2013-11-24T14:18:37Z</time>
      </trkpt>
      <trkpt lat="46.249727848917246" lon="9.640451464802027">
        <ele>1043.6500000000001</ele>
        <time>2013-11-24T14:18:53Z</time>
      </trkpt>
      <trkpt lat="46.249713348224759" lon="9.640295058488846">
        <ele>1043.1700000000001</ele>
        <time>2013-11-24T14:19:09Z</time>
      </trkpt>
      <trkpt lat="46.249637911096215" lon="9.640174023807049">
        <ele>1043.1700000000001</ele>
        <time>2013-11-24T14:19:24Z</time>
      </trkpt>
      <trkpt lat="46.249600863084197" lon="9.640046702697873">
        <ele>1042.6900000000001</ele>
        <time>2013-11-24T14:19:35Z</time>
      </trkpt>
      <trkpt lat="46.249553840607405" lon="9.639931535348296">
        <ele>1041.73</ele>
        <time>2013-11-24T14:19:49Z</time>
      </trkpt>
      <trkpt lat="46.249501788988709" lon="9.639772027730942">
        <ele>1041.25</ele>
        <time>2013-11-24T14:20:03Z</time>
      </trkpt>
      <trkpt lat="46.249473877251148" lon="9.639667002484202">
        <ele>1040.28</ele>
        <time>2013-11-24T14:20:10Z</time>
      </trkpt>
      <trkpt lat="46.249459125101566" lon="9.639588799327612">
        <ele>1038.8399999999999</ele>
        <time>2013-11-24T14:20:14Z</time>
      </trkpt>
      <trkpt lat="46.249455185607076" lon="9.639573879539967">
        <ele>1040.28</ele>
        <time>2013-11-24T14:20:15Z</time>
      </trkpt>
      <trkpt lat="46.249366672709584" lon="9.639382269233465">
        <ele>1037.8800000000001</ele>
        <time>2013-11-24T14:20:30Z</time>
      </trkpt>
      <trkpt lat="46.24932736158371" lon="9.639248326420784">
        <ele>1036.9200000000001</ele>
        <time>2013-11-24T14:20:39Z</time>
      </trkpt>
      <trkpt lat="46.24932149425149" lon="9.639230808243156">
        <ele>1036.4400000000001</ele>
        <time>2013-11-24T14:20:40Z</time>
      </trkpt>
      <trkpt lat="46.249246811494231" lon="9.63892562314868">
        <ele>1033.55</ele>
        <time>2013-11-24T14:20:59Z</time>
      </trkpt>
      <trkpt lat="46.249195681884885" lon="9.638847419992089">
        <ele>1031.6300000000001</ele>
        <time>2013-11-24T14:21:11Z</time>
      </trkpt>
      <trkpt lat="46.249112701043487" lon="9.638581043109298">
        <ele>1028.75</ele>
        <time>2013-11-24T14:21:29Z</time>
      </trkpt>
      <trkpt lat="46.249083196744323" lon="9.638536786660552">
        <ele>1027.79</ele>
        <time>2013-11-24T14:21:33Z</time>
      </trkpt>
      <trkpt lat="46.249077413231134" lon="9.638520106673241">
        <ele>1027.79</ele>
        <time>2013-11-24T14:21:34Z</time>
      </trkpt>
      <trkpt lat="46.249028379097581" lon="9.638328077271581">
        <ele>1025.8599999999999</ele>
        <time>2013-11-24T14:21:47Z</time>
      </trkpt>
      <trkpt lat="46.249004742130637" lon="9.638264207169414">
        <ele>1025.3800000000001</ele>
        <time>2013-11-24T14:21:53Z</time>
      </trkpt>
      <trkpt lat="46.249000132083893" lon="9.638242665678263">
        <ele>1024.9000000000001</ele>
        <time>2013-11-24T14:21:54Z</time>
      </trkpt>
      <trkpt lat="46.248896028846502" lon="9.638061113655567">
        <ele>1022.98</ele>
        <time>2013-11-24T14:22:09Z</time>
      </trkpt>
      <trkpt lat="46.248860908672214" lon="9.637990621849895">
        <ele>1022.5</ele>
        <time>2013-11-24T14:22:14Z</time>
      </trkpt>
      <trkpt lat="46.24881137162447" lon="9.637885261327028">
        <ele>1022.02</ele>
        <time>2013-11-24T14:22:21Z</time>
      </trkpt>
      <trkpt lat="46.248780526220798" lon="9.637833796441555">
        <ele>1021.54</ele>
        <time>2013-11-24T14:22:24Z</time>
      </trkpt>
      <trkpt lat="46.248663766309619" lon="9.637744193896651">
        <ele>1020.58</ele>
        <time>2013-11-24T14:22:36Z</time>
      </trkpt>
      <trkpt lat="46.248629232868552" lon="9.637632127851248">
        <ele>1019.62</ele>
        <time>2013-11-24T14:22:47Z</time>
      </trkpt>
      <trkpt lat="46.248524794355035" lon="9.637571107596159">
        <ele>1019.13</ele>
        <time>2013-11-24T14:22:57Z</time>
      </trkpt>
      <trkpt lat="46.248404514044523" lon="9.637443535029888">
        <ele>1018.17</ele>
        <time>2013-11-24T14:23:08Z</time>
      </trkpt>
      <trkpt lat="46.248173676431179" lon="9.636367298662663">
        <ele>1015.77</ele>
        <time>2013-11-24T14:23:23Z</time>
      </trkpt>
      <trkpt lat="46.248156493529677" lon="9.636248694732785">
        <ele>1015.29</ele>
        <time>2013-11-24T14:23:29Z</time>
      </trkpt>
      <trkpt lat="46.248144842684269" lon="9.636219525709748">
        <ele>1015.29</ele>
        <time>2013-11-24T14:23:31Z</time>
      </trkpt>
      <trkpt lat="46.248000171035528" lon="9.636068483814597">
        <ele>1013.85</ele>
        <time>2013-11-24T14:23:47Z</time>
      </trkpt>
      <trkpt lat="46.247910987585783" lon="9.635942252352834">
        <ele>1012.41</ele>
        <time>2013-11-24T14:23:57Z</time>
      </trkpt>
      <trkpt lat="46.247881734743714" lon="9.63592205196619">
        <ele>1012.41</ele>
        <time>2013-11-24T14:24:00Z</time>
      </trkpt>
      <trkpt lat="46.247683418914676" lon="9.635786935687065">
        <ele>1010.96</ele>
        <time>2013-11-24T14:24:17Z</time>
      </trkpt>
      <trkpt lat="46.247551068663597" lon="9.635698422789574">
        <ele>1009.52</ele>
        <time>2013-11-24T14:24:30Z</time>
      </trkpt>
      <trkpt lat="46.247504716739058" lon="9.635673277080059">
        <ele>1009.04</ele>
        <time>2013-11-24T14:24:34Z</time>
      </trkpt>
      <trkpt lat="46.247373707592487" lon="9.635582501068711">
        <ele>1008.08</ele>
        <time>2013-11-24T14:24:45Z</time>
      </trkpt>
      <trkpt lat="46.247185282409191" lon="9.635501364246011">
        <ele>1007.12</ele>
        <time>2013-11-24T14:25:00Z</time>
      </trkpt>
      <trkpt lat="46.247084783390164" lon="9.63547202758491">
        <ele>1006.64</ele>
        <time>2013-11-24T14:25:08Z</time>
      </trkpt>
      <trkpt lat="46.246874816715717" lon="9.635381167754531">
        <ele>1006.16</ele>
        <time>2013-11-24T14:25:25Z</time>
      </trkpt>
      <trkpt lat="46.246719248592854" lon="9.635293073952198">
        <ele>1003.27</ele>
        <time>2013-11-24T14:25:40Z</time>
      </trkpt>
      <trkpt lat="46.246697371825576" lon="9.635258540511131">
        <ele>1003.27</ele>
        <time>2013-11-24T14:25:43Z</time>
      </trkpt>
      <trkpt lat="46.246533421799541" lon="9.635134488344193">
        <ele>1001.35</ele>
        <time>2013-11-24T14:25:59Z</time>
      </trkpt>
      <trkpt lat="46.246526129543781" lon="9.635123005136848">
        <ele>1001.35</ele>
        <time>2013-11-24T14:26:00Z</time>
      </trkpt>
      <trkpt lat="46.246322616934776" lon="9.634987888857722">
        <ele>1000.87</ele>
        <time>2013-11-24T14:26:17Z</time>
      </trkpt>
      <trkpt lat="46.246119774878025" lon="9.634929047897458">
        <ele>1000.39</ele>
        <time>2013-11-24T14:26:33Z</time>
      </trkpt>
      <trkpt lat="46.245947359129786" lon="9.634907757863402">
        <ele>999.42999999999995</ele>
        <time>2013-11-24T14:26:47Z</time>
      </trkpt>
      <trkpt lat="46.2457618676126" lon="9.63489250279963">
        <ele>998.47000000000003</ele>
        <time>2013-11-24T14:27:01Z</time>
      </trkpt>
      <trkpt lat="46.245628595352173" lon="9.634822681546211">
        <ele>997.50999999999999</ele>
        <time>2013-11-24T14:27:13Z</time>
      </trkpt>
      <trkpt lat="46.245482247322798" lon="9.634663425385952">
        <ele>996.05999999999995</ele>
        <time>2013-11-24T14:27:28Z</time>
      </trkpt>
      <trkpt lat="46.245325841009617" lon="9.63444834575057">
        <ele>993.65999999999997</ele>
        <time>2013-11-24T14:27:49Z</time>
      </trkpt>
      <trkpt lat="46.245243614539504" lon="9.634205857291818">
        <ele>992.70000000000005</ele>
        <time>2013-11-24T14:28:04Z</time>
      </trkpt>
      <trkpt lat="46.245057787746191" lon="9.634064538404346">
        <ele>990.77999999999997</ele>
        <time>2013-11-24T14:28:21Z</time>
      </trkpt>
      <trkpt lat="46.244885539636016" lon="9.633890027180314">
        <ele>988.37</ele>
        <time>2013-11-24T14:28:38Z</time>
      </trkpt>
      <trkpt lat="46.244859723374248" lon="9.633809980005026">
        <ele>987.88999999999999</ele>
        <time>2013-11-24T14:28:44Z</time>
      </trkpt>
      <trkpt lat="46.2448241841048" lon="9.633523402735591">
        <ele>986.45000000000005</ele>
        <time>2013-11-24T14:29:02Z</time>
      </trkpt>
      <trkpt lat="46.244710190221667" lon="9.63331276550889">
        <ele>985.97000000000003</ele>
        <time>2013-11-24T14:29:17Z</time>
      </trkpt>
      <trkpt lat="46.244552275165915" lon="9.633189216256142">
        <ele>985.49000000000001</ele>
        <time>2013-11-24T14:29:28Z</time>
      </trkpt>
      <trkpt lat="46.24443668872118" lon="9.632941363379359">
        <ele>984.52999999999997</ele>
        <time>2013-11-24T14:29:43Z</time>
      </trkpt>
      <trkpt lat="46.244349097833037" lon="9.632733324542642">
        <ele>982.12</ele>
        <time>2013-11-24T14:29:57Z</time>
      </trkpt>
      <trkpt lat="46.244260668754578" lon="9.632541378960013">
        <ele>980.20000000000005</ele>
        <time>2013-11-24T14:30:10Z</time>
      </trkpt>
      <trkpt lat="46.24417626298964" lon="9.63231984525919">
        <ele>979.24000000000001</ele>
        <time>2013-11-24T14:30:24Z</time>
      </trkpt>
      <trkpt lat="46.244083978235722" lon="9.63215664960444">
        <ele>977.79999999999995</ele>
        <time>2013-11-24T14:30:35Z</time>
      </trkpt>
      <trkpt lat="46.244048941880465" lon="9.632127145305276">
        <ele>977.32000000000005</ele>
        <time>2013-11-24T14:30:38Z</time>
      </trkpt>
      <trkpt lat="46.243842830881476" lon="9.631939139217138">
        <ele>975.88</ele>
        <time>2013-11-24T14:30:54Z</time>
      </trkpt>
      <trkpt lat="46.243746941909194" lon="9.631819780915976">
        <ele>974.90999999999997</ele>
        <time>2013-11-24T14:31:04Z</time>
      </trkpt>
      <trkpt lat="46.243575615808368" lon="9.631656752899289">
        <ele>973.47000000000003</ele>
        <time>2013-11-24T14:31:18Z</time>
      </trkpt>
      <trkpt lat="46.243529180064797" lon="9.631610484793782">
        <ele>972.50999999999999</ele>
        <time>2013-11-24T14:31:22Z</time>
      </trkpt>
      <trkpt lat="46.243374114856124" lon="9.631426585838199">
        <ele>971.54999999999995</ele>
        <time>2013-11-24T14:31:38Z</time>
      </trkpt>
      <trkpt lat="46.24333530664444" lon="9.63135433383286">
        <ele>970.59000000000003</ele>
        <time>2013-11-24T14:31:43Z</time>
      </trkpt>
      <trkpt lat="46.243201950564981" lon="9.631213853135705">
        <ele>968.66999999999996</ele>
        <time>2013-11-24T14:32:00Z</time>
      </trkpt>
      <trkpt lat="46.243181331083179" lon="9.631194742396474">
        <ele>968.66999999999996</ele>
        <time>2013-11-24T14:32:02Z</time>
      </trkpt>
      <trkpt lat="46.24304361641407" lon="9.631054010242224">
        <ele>967.70000000000005</ele>
        <time>2013-11-24T14:32:16Z</time>
      </trkpt>
      <trkpt lat="46.242889473214746" lon="9.630953008309007">
        <ele>966.25999999999999</ele>
        <time>2013-11-24T14:32:28Z</time>
      </trkpt>
      <trkpt lat="46.242704065516591" lon="9.630878828465939">
        <ele>965.29999999999995</ele>
        <time>2013-11-24T14:32:43Z</time>
      </trkpt>
      <trkpt lat="46.242558555677533" lon="9.630845300853252">
        <ele>964.34000000000003</ele>
        <time>2013-11-24T14:32:56Z</time>
      </trkpt>
      <trkpt lat="46.242339033633471" lon="9.630710687488318">
        <ele>963.38</ele>
        <time>2013-11-24T14:33:15Z</time>
      </trkpt>
      <trkpt lat="46.242165947332978" lon="9.630622509866953">
        <ele>962.41999999999996</ele>
        <time>2013-11-24T14:33:31Z</time>
      </trkpt>
      <trkpt lat="46.2421371974051" lon="9.630549419671297">
        <ele>961.94000000000005</ele>
        <time>2013-11-24T14:33:38Z</time>
      </trkpt>
      <trkpt lat="46.242154212668538" lon="9.630321180447936">
        <ele>960.98000000000002</ele>
        <time>2013-11-24T14:33:54Z</time>
      </trkpt>
      <trkpt lat="46.242170557379723" lon="9.630047008395195">
        <ele>960.00999999999999</ele>
        <time>2013-11-24T14:34:11Z</time>
      </trkpt>
      <trkpt lat="46.242156391963363" lon="9.629827318713069">
        <ele>959.04999999999995</ele>
        <time>2013-11-24T14:34:27Z</time>
      </trkpt>
      <trkpt lat="46.242140801623464" lon="9.629517691209912">
        <ele>957.61000000000001</ele>
        <time>2013-11-24T14:34:44Z</time>
      </trkpt>
      <trkpt lat="46.242129066959023" lon="9.629278052598238">
        <ele>956.64999999999998</ele>
        <time>2013-11-24T14:35:00Z</time>
      </trkpt>
      <trkpt lat="46.242121858522296" lon="9.629187192767859">
        <ele>956.16999999999996</ele>
        <time>2013-11-24T14:35:05Z</time>
      </trkpt>
      <trkpt lat="46.242059664800763" lon="9.628928694874048">
        <ele>954.73000000000002</ele>
        <time>2013-11-24T14:35:22Z</time>
      </trkpt>
      <trkpt lat="46.242000991478562" lon="9.628615630790591">
        <ele>953.27999999999997</ele>
        <time>2013-11-24T14:35:40Z</time>
      </trkpt>
      <trkpt lat="46.241994788870215" lon="9.628378506749868">
        <ele>952.32000000000005</ele>
        <time>2013-11-24T14:35:55Z</time>
      </trkpt>
      <trkpt lat="46.242018006742001" lon="9.62815135717392">
        <ele>950.88</ele>
        <time>2013-11-24T14:36:09Z</time>
      </trkpt>
      <trkpt lat="46.241999566555023" lon="9.627850614488125">
        <ele>949.91999999999996</ele>
        <time>2013-11-24T14:36:26Z</time>
      </trkpt>
      <trkpt lat="46.241948017850518" lon="9.627644419670105">
        <ele>948.48000000000002</ele>
        <time>2013-11-24T14:36:40Z</time>
      </trkpt>
      <trkpt lat="46.241842154413462" lon="9.627448534592986">
        <ele>947.51999999999998</ele>
        <time>2013-11-24T14:36:55Z</time>
      </trkpt>
      <trkpt lat="46.241708463057876" lon="9.627198837697506">
        <ele>946.07000000000005</ele>
        <time>2013-11-24T14:37:11Z</time>
      </trkpt>
      <trkpt lat="46.241516266018152" lon="9.627060201019049">
        <ele>944.14999999999998</ele>
        <time>2013-11-24T14:37:28Z</time>
      </trkpt>
      <trkpt lat="46.241375282406807" lon="9.626869931817055">
        <ele>942.71000000000004</ele>
        <time>2013-11-24T14:37:44Z</time>
      </trkpt>
      <trkpt lat="46.241229604929686" lon="9.626698940992355">
        <ele>941.26999999999998</ele>
        <time>2013-11-24T14:38:01Z</time>
      </trkpt>
      <trkpt lat="46.241099266335368" lon="9.626490231603384">
        <ele>940.78999999999996</ele>
        <time>2013-11-24T14:38:16Z</time>
      </trkpt>
      <trkpt lat="46.24102265574038" lon="9.626401802524924">
        <ele>940.30999999999995</ele>
        <time>2013-11-24T14:38:30Z</time>
      </trkpt>
      <trkpt lat="46.240996085107327" lon="9.626381685957313">
        <ele>939.83000000000004</ele>
        <time>2013-11-24T14:38:32Z</time>
      </trkpt>
      <trkpt lat="46.241000359877944" lon="9.626448322087526">
        <ele>938.86000000000001</ele>
        <time>2013-11-24T14:38:39Z</time>
      </trkpt>
      <trkpt lat="46.240973034873605" lon="9.626756859943271">
        <ele>935.98000000000002</ele>
        <time>2013-11-24T14:38:54Z</time>
      </trkpt>
      <trkpt lat="46.240970101207495" lon="9.62707394734025">
        <ele>933.10000000000002</ele>
        <time>2013-11-24T14:39:11Z</time>
      </trkpt>
      <trkpt lat="46.24096498824656" lon="9.627154162153602">
        <ele>932.13999999999999</ele>
        <time>2013-11-24T14:39:16Z</time>
      </trkpt>
      <trkpt lat="46.241004718467593" lon="9.627381982281804">
        <ele>929.25</ele>
        <time>2013-11-24T14:39:32Z</time>
      </trkpt>
      <trkpt lat="46.241049394011497" lon="9.627620782703161">
        <ele>927.33000000000004</ele>
        <time>2013-11-24T14:39:48Z</time>
      </trkpt>
      <trkpt lat="46.241078479215503" lon="9.627677863463759">
        <ele>926.85000000000002</ele>
        <time>2013-11-24T14:39:52Z</time>
      </trkpt>
      <trkpt lat="46.241144109517336" lon="9.627819769084454">
        <ele>924.92999999999995</ele>
        <time>2013-11-24T14:40:04Z</time>
      </trkpt>
      <trkpt lat="46.241141427308321" lon="9.627963183447719">
        <ele>924.45000000000005</ele>
        <time>2013-11-24T14:40:11Z</time>
      </trkpt>
      <trkpt lat="46.241121478378773" lon="9.628054378554225">
        <ele>923.96000000000004</ele>
        <time>2013-11-24T14:40:16Z</time>
      </trkpt>
      <trkpt lat="46.241063894703984" lon="9.628055971115828">
        <ele>923.96000000000004</ele>
        <time>2013-11-24T14:40:25Z</time>
      </trkpt>
      <trkpt lat="46.240907488390803" lon="9.628025460988283">
        <ele>923.96000000000004</ele>
        <time>2013-11-24T14:40:42Z</time>
      </trkpt>
      <trkpt lat="46.24063566327095" lon="9.627971900627017">
        <ele>923</ele>
        <time>2013-11-24T14:41:00Z</time>
      </trkpt>
      <trkpt lat="46.24047732912004" lon="9.628081368282437">
        <ele>923.96000000000004</ele>
        <time>2013-11-24T14:41:14Z</time>
      </trkpt>
      <trkpt lat="46.2404431309551" lon="9.628133755177259">
        <ele>923.96000000000004</ele>
        <time>2013-11-24T14:41:17Z</time>
      </trkpt>
      <trkpt lat="46.240289155393839" lon="9.628294855356216">
        <ele>924.92999999999995</ele>
        <time>2013-11-24T14:41:31Z</time>
      </trkpt>
      <trkpt lat="46.240131994709373" lon="9.628435838967562">
        <ele>924.92999999999995</ele>
        <time>2013-11-24T14:41:46Z</time>
      </trkpt>
      <trkpt lat="46.239963015541434" lon="9.628619318827987">
        <ele>923.96000000000004</ele>
        <time>2013-11-24T14:42:03Z</time>
      </trkpt>
      <trkpt lat="46.239799568429589" lon="9.628778239712119">
        <ele>923.48000000000002</ele>
        <time>2013-11-24T14:42:20Z</time>
      </trkpt>
      <trkpt lat="46.239732345566154" lon="9.628876224160194">
        <ele>923</ele>
        <time>2013-11-24T14:42:28Z</time>
      </trkpt>
      <trkpt lat="46.239575436338782" lon="9.629047550261021">
        <ele>922.51999999999998</ele>
        <time>2013-11-24T14:42:44Z</time>
      </trkpt>
      <trkpt lat="46.239408636465669" lon="9.629217786714435">
        <ele>921.55999999999995</ele>
        <time>2013-11-24T14:43:01Z</time>
      </trkpt>
      <trkpt lat="46.23926262371242" lon="9.629380730912089">
        <ele>920.60000000000002</ele>
        <time>2013-11-24T14:43:17Z</time>
      </trkpt>
      <trkpt lat="46.239178301766515" lon="9.62960209697485">
        <ele>920.12</ele>
        <time>2013-11-24T14:43:32Z</time>
      </trkpt>
      <trkpt lat="46.239195903763175" lon="9.629620704799891">
        <ele>920.12</ele>
        <time>2013-11-24T14:43:40Z</time>
      </trkpt>
      <trkpt lat="46.23926111496985" lon="9.629596984013915">
        <ele>920.12</ele>
        <time>2013-11-24T14:43:46Z</time>
      </trkpt>
      <trkpt lat="46.239322302863002" lon="9.629465052857995">
        <ele>920.60000000000002</ele>
        <time>2013-11-24T14:44:00Z</time>
      </trkpt>
      <trkpt lat="46.239338396117091" lon="9.629425071179867">
        <ele>920.60000000000002</ele>
        <time>2013-11-24T14:44:20Z</time>
      </trkpt>
    </trkseg>
  </trk>

</gpx>